<?xml version="1.0" encoding="UTF-8" standalone="no" ?>
<gpx xmlns="http://www.topografix.com/GPX/1/1" xmlns:xsi="http://www.w3.org/2001/XMLSchema-instance" xsi:schemaLocation="http://www.topografix.com/GPX/1/1 http://www.topografix.com/GPX/1/1/gpx.xsd" version="1.1" creator="VisuGPX - https://www.visugpx.com">
  <metadata>
    <name>07-06-2017 Ciney - Scy et Retour</name>
    <desc><![CDATA[Itinéraire de détente en vélo électrique (VTC). ]]></desc>
  </metadata>
  <trk>
    <name><![CDATA[Tracé 7 juin 2017 17:20:37]]></name>
    <trkseg>
      <trkpt lat="50.29408" lon="5.09525">
        <ele>263.95005778675</ele>
        <time>2017-06-07T15:20:37Z</time>
      </trkpt>
      <trkpt lat="50.29408" lon="5.09525">
        <ele>263.95005778675</ele>
        <time>2017-06-07T15:20:44Z</time>
      </trkpt>
      <trkpt lat="50.29415" lon="5.09537">
        <ele>245.29958067236</ele>
        <time>2017-06-07T15:20:48Z</time>
      </trkpt>
      <trkpt lat="50.29411" lon="5.09535">
        <ele>239.93952020671</ele>
        <time>2017-06-07T15:21:13Z</time>
      </trkpt>
      <trkpt lat="50.29413" lon="5.09548">
        <ele>240.81988585144</ele>
        <time>2017-06-07T15:21:26Z</time>
      </trkpt>
      <trkpt lat="50.29413" lon="5.0956">
        <ele>244.0763992667</ele>
        <time>2017-06-07T15:21:39Z</time>
      </trkpt>
      <trkpt lat="50.29415" lon="5.09573">
        <ele>245.98356224264</ele>
        <time>2017-06-07T15:21:45Z</time>
      </trkpt>
      <trkpt lat="50.29421" lon="5.09584">
        <ele>251.7004267807</ele>
        <time>2017-06-07T15:22:07Z</time>
      </trkpt>
      <trkpt lat="50.29438" lon="5.09615">
        <ele>253.18445728447</ele>
        <time>2017-06-07T15:22:11Z</time>
      </trkpt>
      <trkpt lat="50.29454" lon="5.09637">
        <ele>257.05807799641</ele>
        <time>2017-06-07T15:22:16Z</time>
      </trkpt>
      <trkpt lat="50.29466" lon="5.09654">
        <ele>259.15235459466</ele>
        <time>2017-06-07T15:22:20Z</time>
      </trkpt>
      <trkpt lat="50.29479" lon="5.0967">
        <ele>261.59911882042</ele>
        <time>2017-06-07T15:22:24Z</time>
      </trkpt>
      <trkpt lat="50.29492" lon="5.09692">
        <ele>262.28317067533</ele>
        <time>2017-06-07T15:22:29Z</time>
      </trkpt>
      <trkpt lat="50.29513" lon="5.09717">
        <ele>263.49865823665</ele>
        <time>2017-06-07T15:22:33Z</time>
      </trkpt>
      <trkpt lat="50.29533" lon="5.0975">
        <ele>264.37881765851</ele>
        <time>2017-06-07T15:22:38Z</time>
      </trkpt>
      <trkpt lat="50.29546" lon="5.09775">
        <ele>265.56507329083</ele>
        <time>2017-06-07T15:22:42Z</time>
      </trkpt>
      <trkpt lat="50.29563" lon="5.09802">
        <ele>266.3397703395</ele>
        <time>2017-06-07T15:22:46Z</time>
      </trkpt>
      <trkpt lat="50.29579" lon="5.09829">
        <ele>267.80881636256</ele>
        <time>2017-06-07T15:22:50Z</time>
      </trkpt>
      <trkpt lat="50.29602" lon="5.09859">
        <ele>270.67361191793</ele>
        <time>2017-06-07T15:22:55Z</time>
      </trkpt>
      <trkpt lat="50.29622" lon="5.09888">
        <ele>273.96755617259</ele>
        <time>2017-06-07T15:23:00Z</time>
      </trkpt>
      <trkpt lat="50.29648" lon="5.0991">
        <ele>272.11085972373</ele>
        <time>2017-06-07T15:23:04Z</time>
      </trkpt>
      <trkpt lat="50.29667" lon="5.09928">
        <ele>271.62412707536</ele>
        <time>2017-06-07T15:23:08Z</time>
      </trkpt>
      <trkpt lat="50.29691" lon="5.0995">
        <ele>272.17950900886</ele>
        <time>2017-06-07T15:23:13Z</time>
      </trkpt>
      <trkpt lat="50.29719" lon="5.09967">
        <ele>274.34524733405</ele>
        <time>2017-06-07T15:23:18Z</time>
      </trkpt>
      <trkpt lat="50.29748" lon="5.10002">
        <ele>274.24775817527</ele>
        <time>2017-06-07T15:23:23Z</time>
      </trkpt>
      <trkpt lat="50.29778" lon="5.10048">
        <ele>269.54926421727</ele>
        <time>2017-06-07T15:23:28Z</time>
      </trkpt>
      <trkpt lat="50.298" lon="5.10078">
        <ele>267.99912523215</ele>
        <time>2017-06-07T15:23:32Z</time>
      </trkpt>
      <trkpt lat="50.29813" lon="5.10108">
        <ele>265.23287603173</ele>
        <time>2017-06-07T15:23:37Z</time>
      </trkpt>
      <trkpt lat="50.29803" lon="5.10116">
        <ele>263.76627850692</ele>
        <time>2017-06-07T15:23:41Z</time>
      </trkpt>
      <trkpt lat="50.29773" lon="5.10138">
        <ele>262.60004648106</ele>
        <time>2017-06-07T15:23:46Z</time>
      </trkpt>
      <trkpt lat="50.29759" lon="5.10144">
        <ele>264.64764173583</ele>
        <time>2017-06-07T15:23:50Z</time>
      </trkpt>
      <trkpt lat="50.29756" lon="5.10133">
        <ele>267.68060063031</ele>
        <time>2017-06-07T15:24:22Z</time>
      </trkpt>
      <trkpt lat="50.29751" lon="5.10121">
        <ele>267.33648691138</ele>
        <time>2017-06-07T15:24:34Z</time>
      </trkpt>
      <trkpt lat="50.29739" lon="5.10129">
        <ele>267.46686014918</ele>
        <time>2017-06-07T15:24:39Z</time>
      </trkpt>
      <trkpt lat="50.29709" lon="5.1017">
        <ele>269.37927731545</ele>
        <time>2017-06-07T15:24:44Z</time>
      </trkpt>
      <trkpt lat="50.29685" lon="5.10197">
        <ele>264.79476876831</ele>
        <time>2017-06-07T15:24:48Z</time>
      </trkpt>
      <trkpt lat="50.29674" lon="5.1022">
        <ele>260.81078899535</ele>
        <time>2017-06-07T15:24:53Z</time>
      </trkpt>
      <trkpt lat="50.29702" lon="5.10252">
        <ele>259.64556324415</ele>
        <time>2017-06-07T15:24:57Z</time>
      </trkpt>
      <trkpt lat="50.29714" lon="5.10285">
        <ele>259.64820880528</ele>
        <time>2017-06-07T15:25:01Z</time>
      </trkpt>
      <trkpt lat="50.29697" lon="5.10302">
        <ele>262.21991611111</ele>
        <time>2017-06-07T15:25:06Z</time>
      </trkpt>
      <trkpt lat="50.29676" lon="5.1032">
        <ele>262.6309245386</ele>
        <time>2017-06-07T15:25:10Z</time>
      </trkpt>
      <trkpt lat="50.29656" lon="5.10339">
        <ele>263.97118808151</ele>
        <time>2017-06-07T15:25:14Z</time>
      </trkpt>
      <trkpt lat="50.29632" lon="5.10357">
        <ele>266.3485504788</ele>
        <time>2017-06-07T15:25:19Z</time>
      </trkpt>
      <trkpt lat="50.2961" lon="5.10379">
        <ele>267.09716463296</ele>
        <time>2017-06-07T15:25:24Z</time>
      </trkpt>
      <trkpt lat="50.29587" lon="5.10401">
        <ele>266.1810560321</ele>
        <time>2017-06-07T15:25:29Z</time>
      </trkpt>
      <trkpt lat="50.2957" lon="5.10426">
        <ele>267.23697994625</ele>
        <time>2017-06-07T15:25:33Z</time>
      </trkpt>
      <trkpt lat="50.29563" lon="5.10445">
        <ele>267.09071827761</ele>
        <time>2017-06-07T15:25:37Z</time>
      </trkpt>
      <trkpt lat="50.29557" lon="5.10461">
        <ele>267.08336697478</ele>
        <time>2017-06-07T15:25:42Z</time>
      </trkpt>
      <trkpt lat="50.29546" lon="5.10478">
        <ele>266.35420458808</ele>
        <time>2017-06-07T15:25:46Z</time>
      </trkpt>
      <trkpt lat="50.29535" lon="5.10501">
        <ele>268.04190251498</ele>
        <time>2017-06-07T15:25:50Z</time>
      </trkpt>
      <trkpt lat="50.29519" lon="5.10526">
        <ele>270.18767162081</ele>
        <time>2017-06-07T15:25:54Z</time>
      </trkpt>
      <trkpt lat="50.29504" lon="5.10554">
        <ele>270.29028749397</ele>
        <time>2017-06-07T15:25:58Z</time>
      </trkpt>
      <trkpt lat="50.29489" lon="5.10585">
        <ele>269.25050624811</ele>
        <time>2017-06-07T15:26:02Z</time>
      </trkpt>
      <trkpt lat="50.2947" lon="5.10624">
        <ele>268.92134293635</ele>
        <time>2017-06-07T15:26:07Z</time>
      </trkpt>
      <trkpt lat="50.29452" lon="5.10651">
        <ele>270.1803933963</ele>
        <time>2017-06-07T15:26:11Z</time>
      </trkpt>
      <trkpt lat="50.29436" lon="5.10681">
        <ele>271.89774709016</ele>
        <time>2017-06-07T15:26:15Z</time>
      </trkpt>
      <trkpt lat="50.29414" lon="5.1071">
        <ele>274.60136464149</ele>
        <time>2017-06-07T15:26:20Z</time>
      </trkpt>
      <trkpt lat="50.29392" lon="5.10711">
        <ele>277.81683523057</ele>
        <time>2017-06-07T15:26:24Z</time>
      </trkpt>
      <trkpt lat="50.29364" lon="5.10692">
        <ele>281.17008684053</ele>
        <time>2017-06-07T15:26:29Z</time>
      </trkpt>
      <trkpt lat="50.29337" lon="5.10713">
        <ele>281.45050435314</ele>
        <time>2017-06-07T15:26:34Z</time>
      </trkpt>
      <trkpt lat="50.29313" lon="5.1074">
        <ele>282.19008710398</ele>
        <time>2017-06-07T15:26:38Z</time>
      </trkpt>
      <trkpt lat="50.29282" lon="5.1077">
        <ele>280.84199517617</ele>
        <time>2017-06-07T15:26:43Z</time>
      </trkpt>
      <trkpt lat="50.29252" lon="5.10782">
        <ele>278.86534829729</ele>
        <time>2017-06-07T15:26:47Z</time>
      </trkpt>
      <trkpt lat="50.29215" lon="5.10794">
        <ele>275.01837701993</ele>
        <time>2017-06-07T15:26:52Z</time>
      </trkpt>
      <trkpt lat="50.29186" lon="5.10805">
        <ele>272.97399323016</ele>
        <time>2017-06-07T15:26:56Z</time>
      </trkpt>
      <trkpt lat="50.29159" lon="5.10817">
        <ele>273.09949577446</ele>
        <time>2017-06-07T15:27:00Z</time>
      </trkpt>
      <trkpt lat="50.29133" lon="5.10828">
        <ele>272.08149731619</ele>
        <time>2017-06-07T15:27:04Z</time>
      </trkpt>
      <trkpt lat="50.29106" lon="5.10838">
        <ele>270.32579434237</ele>
        <time>2017-06-07T15:27:08Z</time>
      </trkpt>
      <trkpt lat="50.29073" lon="5.1085">
        <ele>268.89692233094</ele>
        <time>2017-06-07T15:27:13Z</time>
      </trkpt>
      <trkpt lat="50.29049" lon="5.10858">
        <ele>268.94530665733</ele>
        <time>2017-06-07T15:27:17Z</time>
      </trkpt>
      <trkpt lat="50.29023" lon="5.10871">
        <ele>268.06048750849</ele>
        <time>2017-06-07T15:27:22Z</time>
      </trkpt>
      <trkpt lat="50.29018" lon="5.10874">
        <ele>267.68079812451</ele>
        <time>2017-06-07T15:27:24Z</time>
      </trkpt>
      <trkpt lat="50.28992" lon="5.10889">
        <ele>267.910657932</ele>
        <time>2017-06-07T15:27:29Z</time>
      </trkpt>
      <trkpt lat="50.2897" lon="5.10903">
        <ele>267.30673725568</ele>
        <time>2017-06-07T15:27:33Z</time>
      </trkpt>
      <trkpt lat="50.28944" lon="5.10921">
        <ele>273.88655912552</ele>
        <time>2017-06-07T15:27:38Z</time>
      </trkpt>
      <trkpt lat="50.2893" lon="5.10932">
        <ele>277.41505812267</ele>
        <time>2017-06-07T15:27:42Z</time>
      </trkpt>
      <trkpt lat="50.28917" lon="5.10944">
        <ele>279.5024689313</ele>
        <time>2017-06-07T15:27:46Z</time>
      </trkpt>
      <trkpt lat="50.289" lon="5.10964">
        <ele>280.89502287389</ele>
        <time>2017-06-07T15:27:51Z</time>
      </trkpt>
      <trkpt lat="50.28888" lon="5.10976">
        <ele>281.46567011131</ele>
        <time>2017-06-07T15:27:55Z</time>
      </trkpt>
      <trkpt lat="50.28878" lon="5.10991">
        <ele>284.8019854893</ele>
        <time>2017-06-07T15:27:59Z</time>
      </trkpt>
      <trkpt lat="50.28859" lon="5.11012">
        <ele>288.08309335216</ele>
        <time>2017-06-07T15:28:04Z</time>
      </trkpt>
      <trkpt lat="50.28846" lon="5.11028">
        <ele>289.11596310154</ele>
        <time>2017-06-07T15:28:08Z</time>
      </trkpt>
      <trkpt lat="50.28829" lon="5.11044">
        <ele>290.02850679733</ele>
        <time>2017-06-07T15:28:12Z</time>
      </trkpt>
      <trkpt lat="50.2881" lon="5.11066">
        <ele>290.15265521196</ele>
        <time>2017-06-07T15:28:16Z</time>
      </trkpt>
      <trkpt lat="50.28778" lon="5.11096">
        <ele>289.4569102816</ele>
        <time>2017-06-07T15:28:21Z</time>
      </trkpt>
      <trkpt lat="50.28744" lon="5.11123">
        <ele>287.43629190585</ele>
        <time>2017-06-07T15:28:26Z</time>
      </trkpt>
      <trkpt lat="50.28714" lon="5.1114">
        <ele>282.68235262157</ele>
        <time>2017-06-07T15:28:30Z</time>
      </trkpt>
      <trkpt lat="50.28679" lon="5.11149">
        <ele>276.50949078673</ele>
        <time>2017-06-07T15:28:34Z</time>
      </trkpt>
      <trkpt lat="50.28644" lon="5.11155">
        <ele>272.56612236754</ele>
        <time>2017-06-07T15:28:38Z</time>
      </trkpt>
      <trkpt lat="50.28613" lon="5.11157">
        <ele>272.54717305936</ele>
        <time>2017-06-07T15:28:42Z</time>
      </trkpt>
      <trkpt lat="50.2858" lon="5.11158">
        <ele>274.49849718405</ele>
        <time>2017-06-07T15:28:47Z</time>
      </trkpt>
      <trkpt lat="50.2855" lon="5.11174">
        <ele>276.78387345257</ele>
        <time>2017-06-07T15:28:52Z</time>
      </trkpt>
      <trkpt lat="50.28523" lon="5.11197">
        <ele>279.00904395182</ele>
        <time>2017-06-07T15:28:57Z</time>
      </trkpt>
      <trkpt lat="50.285" lon="5.1121">
        <ele>278.93867105135</ele>
        <time>2017-06-07T15:29:01Z</time>
      </trkpt>
      <trkpt lat="50.28469" lon="5.11223">
        <ele>278.1598082724</ele>
        <time>2017-06-07T15:29:06Z</time>
      </trkpt>
      <trkpt lat="50.28442" lon="5.11238">
        <ele>278.8611240666</ele>
        <time>2017-06-07T15:29:10Z</time>
      </trkpt>
      <trkpt lat="50.28407" lon="5.11256">
        <ele>279.40744251363</ele>
        <time>2017-06-07T15:29:15Z</time>
      </trkpt>
      <trkpt lat="50.28375" lon="5.11249">
        <ele>278.90539223612</ele>
        <time>2017-06-07T15:29:19Z</time>
      </trkpt>
      <trkpt lat="50.28333" lon="5.11234">
        <ele>275.12810684035</ele>
        <time>2017-06-07T15:29:24Z</time>
      </trkpt>
      <trkpt lat="50.28297" lon="5.11236">
        <ele>272.05596961286</ele>
        <time>2017-06-07T15:29:28Z</time>
      </trkpt>
      <trkpt lat="50.28257" lon="5.11247">
        <ele>270.24559660764</ele>
        <time>2017-06-07T15:29:32Z</time>
      </trkpt>
      <trkpt lat="50.28216" lon="5.11236">
        <ele>267.47559575672</ele>
        <time>2017-06-07T15:29:36Z</time>
      </trkpt>
      <trkpt lat="50.28185" lon="5.11215">
        <ele>265.51117348721</ele>
        <time>2017-06-07T15:29:40Z</time>
      </trkpt>
      <trkpt lat="50.28158" lon="5.112">
        <ele>264.32160429798</ele>
        <time>2017-06-07T15:29:44Z</time>
      </trkpt>
      <trkpt lat="50.28125" lon="5.11186">
        <ele>263.09337464972</ele>
        <time>2017-06-07T15:29:49Z</time>
      </trkpt>
      <trkpt lat="50.28091" lon="5.11178">
        <ele>263.01368453709</ele>
        <time>2017-06-07T15:29:54Z</time>
      </trkpt>
      <trkpt lat="50.28065" lon="5.11173">
        <ele>263.13463960952</ele>
        <time>2017-06-07T15:29:58Z</time>
      </trkpt>
      <trkpt lat="50.28035" lon="5.11165">
        <ele>263.98286912401</ele>
        <time>2017-06-07T15:30:03Z</time>
      </trkpt>
      <trkpt lat="50.28012" lon="5.1116">
        <ele>264.82719137219</ele>
        <time>2017-06-07T15:30:07Z</time>
      </trkpt>
      <trkpt lat="50.27984" lon="5.11153">
        <ele>266.17581461837</ele>
        <time>2017-06-07T15:30:12Z</time>
      </trkpt>
      <trkpt lat="50.27956" lon="5.11146">
        <ele>267.72560295273</ele>
        <time>2017-06-07T15:30:17Z</time>
      </trkpt>
      <trkpt lat="50.27931" lon="5.11139">
        <ele>267.50548657388</ele>
        <time>2017-06-07T15:30:22Z</time>
      </trkpt>
      <trkpt lat="50.27912" lon="5.11141">
        <ele>265.81980508921</ele>
        <time>2017-06-07T15:30:26Z</time>
      </trkpt>
      <trkpt lat="50.27893" lon="5.11141">
        <ele>266.56144752953</ele>
        <time>2017-06-07T15:30:30Z</time>
      </trkpt>
      <trkpt lat="50.27865" lon="5.11143">
        <ele>268.0781345904</ele>
        <time>2017-06-07T15:30:35Z</time>
      </trkpt>
      <trkpt lat="50.27843" lon="5.11145">
        <ele>270.07079436965</ele>
        <time>2017-06-07T15:30:39Z</time>
      </trkpt>
      <trkpt lat="50.27819" lon="5.11145">
        <ele>266.79595716972</ele>
        <time>2017-06-07T15:30:43Z</time>
      </trkpt>
      <trkpt lat="50.27791" lon="5.11144">
        <ele>264.81614732934</ele>
        <time>2017-06-07T15:30:48Z</time>
      </trkpt>
      <trkpt lat="50.27786" lon="5.11145">
        <ele>264.94565197435</ele>
        <time>2017-06-07T15:30:49Z</time>
      </trkpt>
      <trkpt lat="50.27759" lon="5.11144">
        <ele>266.82207543181</ele>
        <time>2017-06-07T15:30:55Z</time>
      </trkpt>
      <trkpt lat="50.27729" lon="5.11144">
        <ele>269.88762353366</ele>
        <time>2017-06-07T15:30:59Z</time>
      </trkpt>
      <trkpt lat="50.27707" lon="5.11144">
        <ele>272.731582706</ele>
        <time>2017-06-07T15:31:03Z</time>
      </trkpt>
      <trkpt lat="50.27682" lon="5.11142">
        <ele>277.09356859845</ele>
        <time>2017-06-07T15:31:07Z</time>
      </trkpt>
      <trkpt lat="50.27653" lon="5.1114">
        <ele>280.24337114</ele>
        <time>2017-06-07T15:31:12Z</time>
      </trkpt>
      <trkpt lat="50.2763" lon="5.11139">
        <ele>280.92766592636</ele>
        <time>2017-06-07T15:31:16Z</time>
      </trkpt>
      <trkpt lat="50.27609" lon="5.11139">
        <ele>281.52192201421</ele>
        <time>2017-06-07T15:31:20Z</time>
      </trkpt>
      <trkpt lat="50.2759" lon="5.11138">
        <ele>282.3247813739</ele>
        <time>2017-06-07T15:31:24Z</time>
      </trkpt>
      <trkpt lat="50.2757" lon="5.11139">
        <ele>283.90091761041</ele>
        <time>2017-06-07T15:31:28Z</time>
      </trkpt>
      <trkpt lat="50.27546" lon="5.11138">
        <ele>285.13548703576</ele>
        <time>2017-06-07T15:31:33Z</time>
      </trkpt>
      <trkpt lat="50.27523" lon="5.11138">
        <ele>287.25742177095</ele>
        <time>2017-06-07T15:31:38Z</time>
      </trkpt>
      <trkpt lat="50.27503" lon="5.1114">
        <ele>289.87338312019</ele>
        <time>2017-06-07T15:31:42Z</time>
      </trkpt>
      <trkpt lat="50.27485" lon="5.11142">
        <ele>289.97260136467</ele>
        <time>2017-06-07T15:31:46Z</time>
      </trkpt>
      <trkpt lat="50.27457" lon="5.11146">
        <ele>288.33292173471</ele>
        <time>2017-06-07T15:31:51Z</time>
      </trkpt>
      <trkpt lat="50.27438" lon="5.11147">
        <ele>288.54678504158</ele>
        <time>2017-06-07T15:31:55Z</time>
      </trkpt>
      <trkpt lat="50.27412" lon="5.11146">
        <ele>292.10040444494</ele>
        <time>2017-06-07T15:32:00Z</time>
      </trkpt>
      <trkpt lat="50.27391" lon="5.11148">
        <ele>293.84909154563</ele>
        <time>2017-06-07T15:32:04Z</time>
      </trkpt>
      <trkpt lat="50.27377" lon="5.11153">
        <ele>294.72241116351</ele>
        <time>2017-06-07T15:32:08Z</time>
      </trkpt>
      <trkpt lat="50.2738" lon="5.11178">
        <ele>296.90604070541</ele>
        <time>2017-06-07T15:32:13Z</time>
      </trkpt>
      <trkpt lat="50.2739" lon="5.11191">
        <ele>299.5282413965</ele>
        <time>2017-06-07T15:32:17Z</time>
      </trkpt>
      <trkpt lat="50.27401" lon="5.1121">
        <ele>303.47122289072</ele>
        <time>2017-06-07T15:32:21Z</time>
      </trkpt>
      <trkpt lat="50.27417" lon="5.11244">
        <ele>303.91166370351</ele>
        <time>2017-06-07T15:32:26Z</time>
      </trkpt>
      <trkpt lat="50.27434" lon="5.11279">
        <ele>305.80347769248</ele>
        <time>2017-06-07T15:32:30Z</time>
      </trkpt>
      <trkpt lat="50.27451" lon="5.11311">
        <ele>309.58464885139</ele>
        <time>2017-06-07T15:32:34Z</time>
      </trkpt>
      <trkpt lat="50.27468" lon="5.1135">
        <ele>313.50975335427</ele>
        <time>2017-06-07T15:32:39Z</time>
      </trkpt>
      <trkpt lat="50.27484" lon="5.11386">
        <ele>312.96243166647</ele>
        <time>2017-06-07T15:32:43Z</time>
      </trkpt>
      <trkpt lat="50.27495" lon="5.11415">
        <ele>309.81285050492</ele>
        <time>2017-06-07T15:32:47Z</time>
      </trkpt>
      <trkpt lat="50.27517" lon="5.11448">
        <ele>303.05577004611</ele>
        <time>2017-06-07T15:32:52Z</time>
      </trkpt>
      <trkpt lat="50.27534" lon="5.11477">
        <ele>298.8601082187</ele>
        <time>2017-06-07T15:32:56Z</time>
      </trkpt>
      <trkpt lat="50.27551" lon="5.11505">
        <ele>294.8345221559</ele>
        <time>2017-06-07T15:33:00Z</time>
      </trkpt>
      <trkpt lat="50.27567" lon="5.11535">
        <ele>294.07332923549</ele>
        <time>2017-06-07T15:33:04Z</time>
      </trkpt>
      <trkpt lat="50.27583" lon="5.11568">
        <ele>296.2648719768</ele>
        <time>2017-06-07T15:33:08Z</time>
      </trkpt>
      <trkpt lat="50.27603" lon="5.11603">
        <ele>295.69402382957</ele>
        <time>2017-06-07T15:33:13Z</time>
      </trkpt>
      <trkpt lat="50.27622" lon="5.11634">
        <ele>293.83454723488</ele>
        <time>2017-06-07T15:33:18Z</time>
      </trkpt>
      <trkpt lat="50.27636" lon="5.11663">
        <ele>296.05012701976</ele>
        <time>2017-06-07T15:33:22Z</time>
      </trkpt>
      <trkpt lat="50.27655" lon="5.11708">
        <ele>298.50834289725</ele>
        <time>2017-06-07T15:33:27Z</time>
      </trkpt>
      <trkpt lat="50.27673" lon="5.11741">
        <ele>300.4122175575</ele>
        <time>2017-06-07T15:33:31Z</time>
      </trkpt>
      <trkpt lat="50.27693" lon="5.11778">
        <ele>303.48183012741</ele>
        <time>2017-06-07T15:33:35Z</time>
      </trkpt>
      <trkpt lat="50.27712" lon="5.11813">
        <ele>307.41773223176</ele>
        <time>2017-06-07T15:33:39Z</time>
      </trkpt>
      <trkpt lat="50.27729" lon="5.11846">
        <ele>308.82611466819</ele>
        <time>2017-06-07T15:33:43Z</time>
      </trkpt>
      <trkpt lat="50.27753" lon="5.11891">
        <ele>305.14132119272</ele>
        <time>2017-06-07T15:33:48Z</time>
      </trkpt>
      <trkpt lat="50.27774" lon="5.11924">
        <ele>299.84788035193</ele>
        <time>2017-06-07T15:33:53Z</time>
      </trkpt>
      <trkpt lat="50.27793" lon="5.11948">
        <ele>298.38177189817</ele>
        <time>2017-06-07T15:33:57Z</time>
      </trkpt>
      <trkpt lat="50.27815" lon="5.11975">
        <ele>299.85357176591</ele>
        <time>2017-06-07T15:34:01Z</time>
      </trkpt>
      <trkpt lat="50.27835" lon="5.12002">
        <ele>296.12537379567</ele>
        <time>2017-06-07T15:34:05Z</time>
      </trkpt>
      <trkpt lat="50.27858" lon="5.12036">
        <ele>294.19366371788</ele>
        <time>2017-06-07T15:34:10Z</time>
      </trkpt>
      <trkpt lat="50.27877" lon="5.12064">
        <ele>292.73412030704</ele>
        <time>2017-06-07T15:34:14Z</time>
      </trkpt>
      <trkpt lat="50.27903" lon="5.12102">
        <ele>294.91836318679</ele>
        <time>2017-06-07T15:34:19Z</time>
      </trkpt>
      <trkpt lat="50.27929" lon="5.12138">
        <ele>301.47767095125</ele>
        <time>2017-06-07T15:34:24Z</time>
      </trkpt>
      <trkpt lat="50.27941" lon="5.12162">
        <ele>303.21600744162</ele>
        <time>2017-06-07T15:34:28Z</time>
      </trkpt>
      <trkpt lat="50.27931" lon="5.12178">
        <ele>305.0576170127</ele>
        <time>2017-06-07T15:34:32Z</time>
      </trkpt>
      <trkpt lat="50.27911" lon="5.12199">
        <ele>306.06294641805</ele>
        <time>2017-06-07T15:34:36Z</time>
      </trkpt>
      <trkpt lat="50.27882" lon="5.12226">
        <ele>304.56142844956</ele>
        <time>2017-06-07T15:34:41Z</time>
      </trkpt>
      <trkpt lat="50.27857" lon="5.12243">
        <ele>303.13365591981</ele>
        <time>2017-06-07T15:34:45Z</time>
      </trkpt>
      <trkpt lat="50.27831" lon="5.12256">
        <ele>300.98350238884</ele>
        <time>2017-06-07T15:34:49Z</time>
      </trkpt>
      <trkpt lat="50.27797" lon="5.12278">
        <ele>298.90552197607</ele>
        <time>2017-06-07T15:34:54Z</time>
      </trkpt>
      <trkpt lat="50.2777" lon="5.12301">
        <ele>297.2238514314</ele>
        <time>2017-06-07T15:34:59Z</time>
      </trkpt>
      <trkpt lat="50.27749" lon="5.12316">
        <ele>297.44200737561</ele>
        <time>2017-06-07T15:35:03Z</time>
      </trkpt>
      <trkpt lat="50.27728" lon="5.12333">
        <ele>298.35004980179</ele>
        <time>2017-06-07T15:35:07Z</time>
      </trkpt>
      <trkpt lat="50.27714" lon="5.1236">
        <ele>299.6190493749</ele>
        <time>2017-06-07T15:35:11Z</time>
      </trkpt>
      <trkpt lat="50.27697" lon="5.12403">
        <ele>300.22196681158</ele>
        <time>2017-06-07T15:35:16Z</time>
      </trkpt>
      <trkpt lat="50.27682" lon="5.12437">
        <ele>299.85352278549</ele>
        <time>2017-06-07T15:35:21Z</time>
      </trkpt>
      <trkpt lat="50.2767" lon="5.1246">
        <ele>299.10758957294</ele>
        <time>2017-06-07T15:35:25Z</time>
      </trkpt>
      <trkpt lat="50.27664" lon="5.12489">
        <ele>296.99001375918</ele>
        <time>2017-06-07T15:35:30Z</time>
      </trkpt>
      <trkpt lat="50.27663" lon="5.1253">
        <ele>293.66819644925</ele>
        <time>2017-06-07T15:35:34Z</time>
      </trkpt>
      <trkpt lat="50.27657" lon="5.12567">
        <ele>290.98930506794</ele>
        <time>2017-06-07T15:35:38Z</time>
      </trkpt>
      <trkpt lat="50.27644" lon="5.12617">
        <ele>288.05761354355</ele>
        <time>2017-06-07T15:35:43Z</time>
      </trkpt>
      <trkpt lat="50.27635" lon="5.12655">
        <ele>285.92578687799</ele>
        <time>2017-06-07T15:35:48Z</time>
      </trkpt>
      <trkpt lat="50.27628" lon="5.12709">
        <ele>283.96267468142</ele>
        <time>2017-06-07T15:35:52Z</time>
      </trkpt>
      <trkpt lat="50.27622" lon="5.1275">
        <ele>282.32108606907</ele>
        <time>2017-06-07T15:35:56Z</time>
      </trkpt>
      <trkpt lat="50.27618" lon="5.12784">
        <ele>280.42737096489</ele>
        <time>2017-06-07T15:36:00Z</time>
      </trkpt>
      <trkpt lat="50.27612" lon="5.12821">
        <ele>278.57894537603</ele>
        <time>2017-06-07T15:36:04Z</time>
      </trkpt>
      <trkpt lat="50.27609" lon="5.12857">
        <ele>278.12131981775</ele>
        <time>2017-06-07T15:36:08Z</time>
      </trkpt>
      <trkpt lat="50.27609" lon="5.12905">
        <ele>276.74282952711</ele>
        <time>2017-06-07T15:36:13Z</time>
      </trkpt>
      <trkpt lat="50.27614" lon="5.12944">
        <ele>273.84724144611</ele>
        <time>2017-06-07T15:36:18Z</time>
      </trkpt>
      <trkpt lat="50.27627" lon="5.1298">
        <ele>273.07761954437</ele>
        <time>2017-06-07T15:36:22Z</time>
      </trkpt>
      <trkpt lat="50.27644" lon="5.13026">
        <ele>272.17727823592</ele>
        <time>2017-06-07T15:36:27Z</time>
      </trkpt>
      <trkpt lat="50.2766" lon="5.1306">
        <ele>272.34873151404</ele>
        <time>2017-06-07T15:36:31Z</time>
      </trkpt>
      <trkpt lat="50.27682" lon="5.1309">
        <ele>270.7738938182</ele>
        <time>2017-06-07T15:36:36Z</time>
      </trkpt>
      <trkpt lat="50.27691" lon="5.13105">
        <ele>269.75098190883</ele>
        <time>2017-06-07T15:36:40Z</time>
      </trkpt>
      <trkpt lat="50.27667" lon="5.13148">
        <ele>267.54370905566</ele>
        <time>2017-06-07T15:36:45Z</time>
      </trkpt>
      <trkpt lat="50.27638" lon="5.13191">
        <ele>266.91401487019</ele>
        <time>2017-06-07T15:36:50Z</time>
      </trkpt>
      <trkpt lat="50.27616" lon="5.1322">
        <ele>268.75536131725</ele>
        <time>2017-06-07T15:36:54Z</time>
      </trkpt>
      <trkpt lat="50.27595" lon="5.13244">
        <ele>270.16348415018</ele>
        <time>2017-06-07T15:36:58Z</time>
      </trkpt>
      <trkpt lat="50.27578" lon="5.13271">
        <ele>269.60145890193</ele>
        <time>2017-06-07T15:37:02Z</time>
      </trkpt>
      <trkpt lat="50.27567" lon="5.13302">
        <ele>268.87752166268</ele>
        <time>2017-06-07T15:37:06Z</time>
      </trkpt>
      <trkpt lat="50.27562" lon="5.13333">
        <ele>268.36452986951</ele>
        <time>2017-06-07T15:37:11Z</time>
      </trkpt>
      <trkpt lat="50.27565" lon="5.13366">
        <ele>266.96781646139</ele>
        <time>2017-06-07T15:37:15Z</time>
      </trkpt>
      <trkpt lat="50.2757" lon="5.13396">
        <ele>267.44030678788</ele>
        <time>2017-06-07T15:37:20Z</time>
      </trkpt>
      <trkpt lat="50.27575" lon="5.1342">
        <ele>268.48055710859</ele>
        <time>2017-06-07T15:37:24Z</time>
      </trkpt>
      <trkpt lat="50.27581" lon="5.13445">
        <ele>270.67688917359</ele>
        <time>2017-06-07T15:37:28Z</time>
      </trkpt>
      <trkpt lat="50.27585" lon="5.13469">
        <ele>271.90067155631</ele>
        <time>2017-06-07T15:37:32Z</time>
      </trkpt>
      <trkpt lat="50.27591" lon="5.13494">
        <ele>275.5452355715</ele>
        <time>2017-06-07T15:37:36Z</time>
      </trkpt>
      <trkpt lat="50.27596" lon="5.13521">
        <ele>279.97651412479</ele>
        <time>2017-06-07T15:37:40Z</time>
      </trkpt>
      <trkpt lat="50.276" lon="5.13554">
        <ele>281.72190480342</ele>
        <time>2017-06-07T15:37:45Z</time>
      </trkpt>
      <trkpt lat="50.27602" lon="5.13593">
        <ele>281.72362962673</ele>
        <time>2017-06-07T15:37:50Z</time>
      </trkpt>
      <trkpt lat="50.27594" lon="5.1362">
        <ele>281.55388536122</ele>
        <time>2017-06-07T15:37:54Z</time>
      </trkpt>
      <trkpt lat="50.27582" lon="5.13644">
        <ele>283.9097835882</ele>
        <time>2017-06-07T15:37:58Z</time>
      </trkpt>
      <trkpt lat="50.27567" lon="5.13665">
        <ele>287.14168547185</ele>
        <time>2017-06-07T15:38:02Z</time>
      </trkpt>
      <trkpt lat="50.27552" lon="5.13684">
        <ele>289.79784789547</ele>
        <time>2017-06-07T15:38:06Z</time>
      </trkpt>
      <trkpt lat="50.27531" lon="5.13704">
        <ele>292.27521625655</ele>
        <time>2017-06-07T15:38:11Z</time>
      </trkpt>
      <trkpt lat="50.27514" lon="5.13721">
        <ele>293.67361056043</ele>
        <time>2017-06-07T15:38:15Z</time>
      </trkpt>
      <trkpt lat="50.27495" lon="5.13747">
        <ele>294.70104053357</ele>
        <time>2017-06-07T15:38:20Z</time>
      </trkpt>
      <trkpt lat="50.2748" lon="5.13773">
        <ele>295.04720442252</ele>
        <time>2017-06-07T15:38:24Z</time>
      </trkpt>
      <trkpt lat="50.27463" lon="5.1381">
        <ele>294.84802908985</ele>
        <time>2017-06-07T15:38:29Z</time>
      </trkpt>
      <trkpt lat="50.27449" lon="5.13841">
        <ele>295.21201612246</ele>
        <time>2017-06-07T15:38:34Z</time>
      </trkpt>
      <trkpt lat="50.27435" lon="5.1387">
        <ele>295.78274631894</ele>
        <time>2017-06-07T15:38:39Z</time>
      </trkpt>
      <trkpt lat="50.27422" lon="5.13897">
        <ele>296.61916533843</ele>
        <time>2017-06-07T15:38:43Z</time>
      </trkpt>
      <trkpt lat="50.27403" lon="5.13931">
        <ele>295.62541296518</ele>
        <time>2017-06-07T15:38:48Z</time>
      </trkpt>
      <trkpt lat="50.27387" lon="5.13957">
        <ele>295.19107351756</ele>
        <time>2017-06-07T15:38:52Z</time>
      </trkpt>
      <trkpt lat="50.27371" lon="5.13986">
        <ele>296.62684538906</ele>
        <time>2017-06-07T15:38:56Z</time>
      </trkpt>
      <trkpt lat="50.27356" lon="5.14015">
        <ele>297.84620761986</ele>
        <time>2017-06-07T15:39:01Z</time>
      </trkpt>
      <trkpt lat="50.27346" lon="5.14038">
        <ele>298.77593435211</ele>
        <time>2017-06-07T15:39:05Z</time>
      </trkpt>
      <trkpt lat="50.27333" lon="5.14067">
        <ele>302.05200758163</ele>
        <time>2017-06-07T15:39:10Z</time>
      </trkpt>
      <trkpt lat="50.27323" lon="5.14087">
        <ele>304.15587569018</ele>
        <time>2017-06-07T15:39:14Z</time>
      </trkpt>
      <trkpt lat="50.27314" lon="5.14108">
        <ele>305.91622440268</ele>
        <time>2017-06-07T15:39:18Z</time>
      </trkpt>
      <trkpt lat="50.27305" lon="5.14127">
        <ele>307.14886461475</ele>
        <time>2017-06-07T15:39:22Z</time>
      </trkpt>
      <trkpt lat="50.27294" lon="5.14152">
        <ele>309.5514931284</ele>
        <time>2017-06-07T15:39:27Z</time>
      </trkpt>
      <trkpt lat="50.27287" lon="5.14177">
        <ele>311.81366185183</ele>
        <time>2017-06-07T15:39:31Z</time>
      </trkpt>
      <trkpt lat="50.27279" lon="5.14199">
        <ele>313.23438317921</ele>
        <time>2017-06-07T15:39:35Z</time>
      </trkpt>
      <trkpt lat="50.27265" lon="5.14226">
        <ele>316.01108641763</ele>
        <time>2017-06-07T15:39:40Z</time>
      </trkpt>
      <trkpt lat="50.27257" lon="5.1425">
        <ele>316.18922467005</ele>
        <time>2017-06-07T15:39:44Z</time>
      </trkpt>
      <trkpt lat="50.2725" lon="5.14267">
        <ele>315.95431082344</ele>
        <time>2017-06-07T15:39:48Z</time>
      </trkpt>
      <trkpt lat="50.27246" lon="5.14274">
        <ele>317.18351293997</ele>
        <time>2017-06-07T15:40:44Z</time>
      </trkpt>
      <trkpt lat="50.27247" lon="5.14302">
        <ele>317.40000305394</ele>
        <time>2017-06-07T15:40:48Z</time>
      </trkpt>
      <trkpt lat="50.27257" lon="5.14331">
        <ele>317.47443258287</ele>
        <time>2017-06-07T15:40:52Z</time>
      </trkpt>
      <trkpt lat="50.27266" lon="5.14365">
        <ele>316.61639587527</ele>
        <time>2017-06-07T15:40:56Z</time>
      </trkpt>
      <trkpt lat="50.27273" lon="5.14407">
        <ele>317.66916049221</ele>
        <time>2017-06-07T15:41:00Z</time>
      </trkpt>
      <trkpt lat="50.27278" lon="5.1445">
        <ele>321.46081268355</ele>
        <time>2017-06-07T15:41:04Z</time>
      </trkpt>
      <trkpt lat="50.27283" lon="5.14493">
        <ele>324.11435006398</ele>
        <time>2017-06-07T15:41:08Z</time>
      </trkpt>
      <trkpt lat="50.27288" lon="5.14539">
        <ele>324.91140143068</ele>
        <time>2017-06-07T15:41:12Z</time>
      </trkpt>
      <trkpt lat="50.27293" lon="5.14584">
        <ele>323.15964827591</ele>
        <time>2017-06-07T15:41:16Z</time>
      </trkpt>
      <trkpt lat="50.27296" lon="5.14625">
        <ele>323.44230587696</ele>
        <time>2017-06-07T15:41:20Z</time>
      </trkpt>
      <trkpt lat="50.27302" lon="5.14669">
        <ele>324.70585155894</ele>
        <time>2017-06-07T15:41:24Z</time>
      </trkpt>
      <trkpt lat="50.27312" lon="5.14712">
        <ele>324.98717625156</ele>
        <time>2017-06-07T15:41:28Z</time>
      </trkpt>
      <trkpt lat="50.27328" lon="5.14768">
        <ele>324.8992439696</ele>
        <time>2017-06-07T15:41:33Z</time>
      </trkpt>
      <trkpt lat="50.27344" lon="5.14818">
        <ele>323.52714956278</ele>
        <time>2017-06-07T15:41:38Z</time>
      </trkpt>
      <trkpt lat="50.27356" lon="5.14859">
        <ele>321.48748358769</ele>
        <time>2017-06-07T15:41:42Z</time>
      </trkpt>
      <trkpt lat="50.27369" lon="5.14901">
        <ele>320.24992805984</ele>
        <time>2017-06-07T15:41:46Z</time>
      </trkpt>
      <trkpt lat="50.27384" lon="5.14952">
        <ele>318.6279146349</ele>
        <time>2017-06-07T15:41:51Z</time>
      </trkpt>
      <trkpt lat="50.27395" lon="5.14993">
        <ele>315.62687375482</ele>
        <time>2017-06-07T15:41:55Z</time>
      </trkpt>
      <trkpt lat="50.27409" lon="5.15048">
        <ele>317.16269016555</ele>
        <time>2017-06-07T15:42:00Z</time>
      </trkpt>
      <trkpt lat="50.27416" lon="5.15095">
        <ele>320.92922719564</ele>
        <time>2017-06-07T15:42:04Z</time>
      </trkpt>
      <trkpt lat="50.27419" lon="5.15141">
        <ele>323.79736384852</ele>
        <time>2017-06-07T15:42:08Z</time>
      </trkpt>
      <trkpt lat="50.27419" lon="5.15187">
        <ele>325.14661117212</ele>
        <time>2017-06-07T15:42:12Z</time>
      </trkpt>
      <trkpt lat="50.27418" lon="5.1523">
        <ele>324.72428657916</ele>
        <time>2017-06-07T15:42:16Z</time>
      </trkpt>
      <trkpt lat="50.27417" lon="5.15283">
        <ele>318.90610381687</ele>
        <time>2017-06-07T15:42:21Z</time>
      </trkpt>
      <trkpt lat="50.27418" lon="5.15334">
        <ele>317.21271808843</ele>
        <time>2017-06-07T15:42:26Z</time>
      </trkpt>
      <trkpt lat="50.2742" lon="5.15373">
        <ele>318.71460605628</ele>
        <time>2017-06-07T15:42:30Z</time>
      </trkpt>
      <trkpt lat="50.2743" lon="5.15414">
        <ele>317.71015907314</ele>
        <time>2017-06-07T15:42:34Z</time>
      </trkpt>
      <trkpt lat="50.27442" lon="5.15462">
        <ele>316.19447900224</ele>
        <time>2017-06-07T15:42:39Z</time>
      </trkpt>
      <trkpt lat="50.27456" lon="5.15512">
        <ele>316.00020731008</ele>
        <time>2017-06-07T15:42:44Z</time>
      </trkpt>
      <trkpt lat="50.27468" lon="5.1555">
        <ele>315.6233582038</ele>
        <time>2017-06-07T15:42:48Z</time>
      </trkpt>
      <trkpt lat="50.27481" lon="5.15587">
        <ele>314.39852053894</ele>
        <time>2017-06-07T15:42:52Z</time>
      </trkpt>
      <trkpt lat="50.27496" lon="5.15639">
        <ele>314.42214587519</ele>
        <time>2017-06-07T15:42:57Z</time>
      </trkpt>
      <trkpt lat="50.27507" lon="5.1568">
        <ele>313.99544754387</ele>
        <time>2017-06-07T15:43:01Z</time>
      </trkpt>
      <trkpt lat="50.27525" lon="5.15728">
        <ele>314.06457821628</ele>
        <time>2017-06-07T15:43:06Z</time>
      </trkpt>
      <trkpt lat="50.27539" lon="5.15767">
        <ele>314.76651667166</ele>
        <time>2017-06-07T15:43:10Z</time>
      </trkpt>
      <trkpt lat="50.27553" lon="5.15807">
        <ele>314.90200489872</ele>
        <time>2017-06-07T15:43:14Z</time>
      </trkpt>
      <trkpt lat="50.27567" lon="5.15861">
        <ele>314.99629505992</ele>
        <time>2017-06-07T15:43:19Z</time>
      </trkpt>
      <trkpt lat="50.27579" lon="5.15905">
        <ele>314.61391277748</ele>
        <time>2017-06-07T15:43:23Z</time>
      </trkpt>
      <trkpt lat="50.27591" lon="5.15949">
        <ele>314.0689656064</ele>
        <time>2017-06-07T15:43:27Z</time>
      </trkpt>
      <trkpt lat="50.27607" lon="5.16001">
        <ele>313.22724856961</ele>
        <time>2017-06-07T15:43:32Z</time>
      </trkpt>
      <trkpt lat="50.27622" lon="5.16055">
        <ele>314.09612788799</ele>
        <time>2017-06-07T15:43:37Z</time>
      </trkpt>
      <trkpt lat="50.27636" lon="5.16099">
        <ele>314.22971698423</ele>
        <time>2017-06-07T15:43:41Z</time>
      </trkpt>
      <trkpt lat="50.27653" lon="5.16158">
        <ele>315.3967700031</ele>
        <time>2017-06-07T15:43:46Z</time>
      </trkpt>
      <trkpt lat="50.2767" lon="5.16213">
        <ele>315.04730438349</ele>
        <time>2017-06-07T15:43:51Z</time>
      </trkpt>
      <trkpt lat="50.27686" lon="5.16261">
        <ele>311.82557544784</ele>
        <time>2017-06-07T15:43:55Z</time>
      </trkpt>
      <trkpt lat="50.27706" lon="5.16304">
        <ele>309.04112225277</ele>
        <time>2017-06-07T15:43:59Z</time>
      </trkpt>
      <trkpt lat="50.27724" lon="5.16345">
        <ele>308.3030054386</ele>
        <time>2017-06-07T15:44:03Z</time>
      </trkpt>
      <trkpt lat="50.27747" lon="5.1639">
        <ele>308.77419163544</ele>
        <time>2017-06-07T15:44:08Z</time>
      </trkpt>
      <trkpt lat="50.27766" lon="5.16426">
        <ele>309.43862391554</ele>
        <time>2017-06-07T15:44:12Z</time>
      </trkpt>
      <trkpt lat="50.27782" lon="5.16475">
        <ele>310.19486356946</ele>
        <time>2017-06-07T15:44:17Z</time>
      </trkpt>
      <trkpt lat="50.27794" lon="5.16511">
        <ele>309.7140106905</ele>
        <time>2017-06-07T15:44:21Z</time>
      </trkpt>
      <trkpt lat="50.2781" lon="5.16558">
        <ele>310.17611064628</ele>
        <time>2017-06-07T15:44:26Z</time>
      </trkpt>
      <trkpt lat="50.2782" lon="5.16597">
        <ele>311.92190478205</ele>
        <time>2017-06-07T15:44:30Z</time>
      </trkpt>
      <trkpt lat="50.27832" lon="5.16646">
        <ele>313.76801791834</ele>
        <time>2017-06-07T15:44:35Z</time>
      </trkpt>
      <trkpt lat="50.27839" lon="5.16683">
        <ele>314.22911583467</ele>
        <time>2017-06-07T15:44:39Z</time>
      </trkpt>
      <trkpt lat="50.27848" lon="5.16721">
        <ele>315.25944559627</ele>
        <time>2017-06-07T15:44:43Z</time>
      </trkpt>
      <trkpt lat="50.27859" lon="5.16769">
        <ele>316.97336827222</ele>
        <time>2017-06-07T15:44:48Z</time>
      </trkpt>
      <trkpt lat="50.27864" lon="5.16807">
        <ele>316.16331420676</ele>
        <time>2017-06-07T15:44:53Z</time>
      </trkpt>
      <trkpt lat="50.27871" lon="5.16853">
        <ele>314.2914369588</ele>
        <time>2017-06-07T15:44:57Z</time>
      </trkpt>
      <trkpt lat="50.27878" lon="5.16888">
        <ele>312.50861182231</ele>
        <time>2017-06-07T15:45:01Z</time>
      </trkpt>
      <trkpt lat="50.27888" lon="5.16924">
        <ele>312.74644451648</ele>
        <time>2017-06-07T15:45:05Z</time>
      </trkpt>
      <trkpt lat="50.27902" lon="5.16969">
        <ele>312.7886696178</ele>
        <time>2017-06-07T15:45:10Z</time>
      </trkpt>
      <trkpt lat="50.27917" lon="5.17005">
        <ele>314.07862056259</ele>
        <time>2017-06-07T15:45:14Z</time>
      </trkpt>
      <trkpt lat="50.27933" lon="5.17049">
        <ele>316.82034955213</ele>
        <time>2017-06-07T15:45:19Z</time>
      </trkpt>
      <trkpt lat="50.27947" lon="5.17085">
        <ele>318.9547742031</ele>
        <time>2017-06-07T15:45:23Z</time>
      </trkpt>
      <trkpt lat="50.2796" lon="5.17123">
        <ele>321.95235361227</ele>
        <time>2017-06-07T15:45:27Z</time>
      </trkpt>
      <trkpt lat="50.27977" lon="5.17169">
        <ele>325.29890695435</ele>
        <time>2017-06-07T15:45:32Z</time>
      </trkpt>
      <trkpt lat="50.27995" lon="5.17216">
        <ele>326.55023424074</ele>
        <time>2017-06-07T15:45:37Z</time>
      </trkpt>
      <trkpt lat="50.28009" lon="5.17252">
        <ele>326.46260250325</ele>
        <time>2017-06-07T15:45:41Z</time>
      </trkpt>
      <trkpt lat="50.28028" lon="5.17297">
        <ele>326.1742500399</ele>
        <time>2017-06-07T15:45:46Z</time>
      </trkpt>
      <trkpt lat="50.28045" lon="5.17343">
        <ele>322.74411347446</ele>
        <time>2017-06-07T15:45:51Z</time>
      </trkpt>
      <trkpt lat="50.28058" lon="5.17379">
        <ele>322.47889592221</ele>
        <time>2017-06-07T15:45:55Z</time>
      </trkpt>
      <trkpt lat="50.28073" lon="5.17415">
        <ele>323.92648496712</ele>
        <time>2017-06-07T15:45:59Z</time>
      </trkpt>
      <trkpt lat="50.28093" lon="5.17461">
        <ele>325.92293846333</ele>
        <time>2017-06-07T15:46:04Z</time>
      </trkpt>
      <trkpt lat="50.28115" lon="5.17506">
        <ele>328.35086362746</ele>
        <time>2017-06-07T15:46:09Z</time>
      </trkpt>
      <trkpt lat="50.28131" lon="5.17545">
        <ele>330.88534962047</ele>
        <time>2017-06-07T15:46:13Z</time>
      </trkpt>
      <trkpt lat="50.28146" lon="5.17581">
        <ele>333.50210768272</ele>
        <time>2017-06-07T15:46:17Z</time>
      </trkpt>
      <trkpt lat="50.28162" lon="5.17615">
        <ele>333.61727297448</ele>
        <time>2017-06-07T15:46:21Z</time>
      </trkpt>
      <trkpt lat="50.28185" lon="5.17661">
        <ele>331.9177667438</ele>
        <time>2017-06-07T15:46:26Z</time>
      </trkpt>
      <trkpt lat="50.28207" lon="5.17707">
        <ele>330.74212330431</ele>
        <time>2017-06-07T15:46:31Z</time>
      </trkpt>
      <trkpt lat="50.28228" lon="5.17751">
        <ele>332.23098843809</ele>
        <time>2017-06-07T15:46:36Z</time>
      </trkpt>
      <trkpt lat="50.28244" lon="5.17786">
        <ele>331.80131930344</ele>
        <time>2017-06-07T15:46:40Z</time>
      </trkpt>
      <trkpt lat="50.28265" lon="5.17828">
        <ele>330.47441574795</ele>
        <time>2017-06-07T15:46:45Z</time>
      </trkpt>
      <trkpt lat="50.28283" lon="5.17863">
        <ele>330.42711980465</ele>
        <time>2017-06-07T15:46:49Z</time>
      </trkpt>
      <trkpt lat="50.28301" lon="5.17897">
        <ele>329.69972973979</ele>
        <time>2017-06-07T15:46:53Z</time>
      </trkpt>
      <trkpt lat="50.28317" lon="5.17941">
        <ele>327.03297412907</ele>
        <time>2017-06-07T15:46:58Z</time>
      </trkpt>
      <trkpt lat="50.28303" lon="5.17973">
        <ele>325.86315756746</ele>
        <time>2017-06-07T15:47:02Z</time>
      </trkpt>
      <trkpt lat="50.28277" lon="5.18005">
        <ele>326.6512969413</ele>
        <time>2017-06-07T15:47:07Z</time>
      </trkpt>
      <trkpt lat="50.28259" lon="5.1803">
        <ele>328.49130906866</ele>
        <time>2017-06-07T15:47:11Z</time>
      </trkpt>
      <trkpt lat="50.28234" lon="5.18062">
        <ele>329.45393548901</ele>
        <time>2017-06-07T15:47:16Z</time>
      </trkpt>
      <trkpt lat="50.28215" lon="5.18092">
        <ele>330.65632387306</ele>
        <time>2017-06-07T15:47:20Z</time>
      </trkpt>
      <trkpt lat="50.28197" lon="5.18125">
        <ele>329.7110116439</ele>
        <time>2017-06-07T15:47:25Z</time>
      </trkpt>
      <trkpt lat="50.28176" lon="5.18168">
        <ele>329.52504130207</ele>
        <time>2017-06-07T15:47:29Z</time>
      </trkpt>
      <trkpt lat="50.28158" lon="5.18204">
        <ele>328.0132088262</ele>
        <time>2017-06-07T15:47:33Z</time>
      </trkpt>
      <trkpt lat="50.28141" lon="5.18243">
        <ele>325.47015153938</ele>
        <time>2017-06-07T15:47:37Z</time>
      </trkpt>
      <trkpt lat="50.28125" lon="5.18301">
        <ele>322.22933374618</ele>
        <time>2017-06-07T15:47:42Z</time>
      </trkpt>
      <trkpt lat="50.2812" lon="5.18353">
        <ele>320.30231114589</ele>
        <time>2017-06-07T15:47:46Z</time>
      </trkpt>
      <trkpt lat="50.28113" lon="5.18419">
        <ele>315.36071662584</ele>
        <time>2017-06-07T15:47:50Z</time>
      </trkpt>
      <trkpt lat="50.28106" lon="5.1848">
        <ele>309.47787246427</ele>
        <time>2017-06-07T15:47:54Z</time>
      </trkpt>
      <trkpt lat="50.281" lon="5.18536">
        <ele>305.60197894823</ele>
        <time>2017-06-07T15:47:58Z</time>
      </trkpt>
      <trkpt lat="50.28093" lon="5.18584">
        <ele>304.81125169163</ele>
        <time>2017-06-07T15:48:02Z</time>
      </trkpt>
      <trkpt lat="50.28089" lon="5.18632">
        <ele>308.32433640746</ele>
        <time>2017-06-07T15:48:06Z</time>
      </trkpt>
      <trkpt lat="50.28087" lon="5.18677">
        <ele>312.03831981759</ele>
        <time>2017-06-07T15:48:10Z</time>
      </trkpt>
      <trkpt lat="50.28084" lon="5.18734">
        <ele>314.50237702731</ele>
        <time>2017-06-07T15:48:15Z</time>
      </trkpt>
      <trkpt lat="50.28082" lon="5.18793">
        <ele>314.92281742899</ele>
        <time>2017-06-07T15:48:20Z</time>
      </trkpt>
      <trkpt lat="50.28083" lon="5.18847">
        <ele>315.360452441</ele>
        <time>2017-06-07T15:48:25Z</time>
      </trkpt>
      <trkpt lat="50.28086" lon="5.18896">
        <ele>318.75355675354</ele>
        <time>2017-06-07T15:48:29Z</time>
      </trkpt>
      <trkpt lat="50.28086" lon="5.18957">
        <ele>322.50665143041</ele>
        <time>2017-06-07T15:48:33Z</time>
      </trkpt>
      <trkpt lat="50.28088" lon="5.19032">
        <ele>322.86358107904</ele>
        <time>2017-06-07T15:48:38Z</time>
      </trkpt>
      <trkpt lat="50.28082" lon="5.19091">
        <ele>320.38165969239</ele>
        <time>2017-06-07T15:48:42Z</time>
      </trkpt>
      <trkpt lat="50.28078" lon="5.19154">
        <ele>313.96782523543</ele>
        <time>2017-06-07T15:48:46Z</time>
      </trkpt>
      <trkpt lat="50.28077" lon="5.19216">
        <ele>306.78568933058</ele>
        <time>2017-06-07T15:48:50Z</time>
      </trkpt>
      <trkpt lat="50.28086" lon="5.19289">
        <ele>302.91347192422</ele>
        <time>2017-06-07T15:48:55Z</time>
      </trkpt>
      <trkpt lat="50.28086" lon="5.1935">
        <ele>304.26937655425</ele>
        <time>2017-06-07T15:48:59Z</time>
      </trkpt>
      <trkpt lat="50.28081" lon="5.19431">
        <ele>305.08075935128</ele>
        <time>2017-06-07T15:49:04Z</time>
      </trkpt>
      <trkpt lat="50.28071" lon="5.19495">
        <ele>302.35186512586</ele>
        <time>2017-06-07T15:49:08Z</time>
      </trkpt>
      <trkpt lat="50.2806" lon="5.1957">
        <ele>289.29553678783</ele>
        <time>2017-06-07T15:49:13Z</time>
      </trkpt>
      <trkpt lat="50.28048" lon="5.1965">
        <ele>277.40175300809</ele>
        <time>2017-06-07T15:49:18Z</time>
      </trkpt>
      <trkpt lat="50.2804" lon="5.19716">
        <ele>272.72423183581</ele>
        <time>2017-06-07T15:49:22Z</time>
      </trkpt>
      <trkpt lat="50.28032" lon="5.19785">
        <ele>265.5615265119</ele>
        <time>2017-06-07T15:49:27Z</time>
      </trkpt>
      <trkpt lat="50.28027" lon="5.19832">
        <ele>259.7116474345</ele>
        <time>2017-06-07T15:49:31Z</time>
      </trkpt>
      <trkpt lat="50.28025" lon="5.19884">
        <ele>256.14831961216</ele>
        <time>2017-06-07T15:49:36Z</time>
      </trkpt>
      <trkpt lat="50.28026" lon="5.19904">
        <ele>255.72714120443</ele>
        <time>2017-06-07T15:49:41Z</time>
      </trkpt>
      <trkpt lat="50.28029" lon="5.19892">
        <ele>255.65681832807</ele>
        <time>2017-06-07T15:49:45Z</time>
      </trkpt>
      <trkpt lat="50.28032" lon="5.19863">
        <ele>256.96389730063</ele>
        <time>2017-06-07T15:49:50Z</time>
      </trkpt>
      <trkpt lat="50.28037" lon="5.19843">
        <ele>257.62442926911</ele>
        <time>2017-06-07T15:49:54Z</time>
      </trkpt>
      <trkpt lat="50.28052" lon="5.19838">
        <ele>257.10928531062</ele>
        <time>2017-06-07T15:49:59Z</time>
      </trkpt>
      <trkpt lat="50.28108" lon="5.19839">
        <ele>256.95432712131</ele>
        <time>2017-06-07T15:50:09Z</time>
      </trkpt>
      <trkpt lat="50.28126" lon="5.19841">
        <ele>264.11391573997</ele>
        <time>2017-06-07T15:50:14Z</time>
      </trkpt>
      <trkpt lat="50.2815" lon="5.19839">
        <ele>266.4700947702</ele>
        <time>2017-06-07T15:50:19Z</time>
      </trkpt>
      <trkpt lat="50.28171" lon="5.19836">
        <ele>266.47051417467</ele>
        <time>2017-06-07T15:50:24Z</time>
      </trkpt>
      <trkpt lat="50.28179" lon="5.19842">
        <ele>266.36834211047</ele>
        <time>2017-06-07T15:50:28Z</time>
      </trkpt>
      <trkpt lat="50.28185" lon="5.19873">
        <ele>266.05567990824</ele>
        <time>2017-06-07T15:50:32Z</time>
      </trkpt>
      <trkpt lat="50.28188" lon="5.19917">
        <ele>271.78151540184</ele>
        <time>2017-06-07T15:50:37Z</time>
      </trkpt>
      <trkpt lat="50.28189" lon="5.1996">
        <ele>273.56083096338</ele>
        <time>2017-06-07T15:50:41Z</time>
      </trkpt>
      <trkpt lat="50.2819" lon="5.20015">
        <ele>272.02416046121</ele>
        <time>2017-06-07T15:50:46Z</time>
      </trkpt>
      <trkpt lat="50.28191" lon="5.20054">
        <ele>272.72099126617</ele>
        <time>2017-06-07T15:50:50Z</time>
      </trkpt>
      <trkpt lat="50.28187" lon="5.20108">
        <ele>273.32358467716</ele>
        <time>2017-06-07T15:50:55Z</time>
      </trkpt>
      <trkpt lat="50.28185" lon="5.20166">
        <ele>270.54425659257</ele>
        <time>2017-06-07T15:51:00Z</time>
      </trkpt>
      <trkpt lat="50.28186" lon="5.20216">
        <ele>267.66643439584</ele>
        <time>2017-06-07T15:51:04Z</time>
      </trkpt>
      <trkpt lat="50.28187" lon="5.20265">
        <ele>266.45371118576</ele>
        <time>2017-06-07T15:51:08Z</time>
      </trkpt>
      <trkpt lat="50.28189" lon="5.20319">
        <ele>261.85790944024</ele>
        <time>2017-06-07T15:51:13Z</time>
      </trkpt>
      <trkpt lat="50.28191" lon="5.20364">
        <ele>256.48022884696</ele>
        <time>2017-06-07T15:51:17Z</time>
      </trkpt>
      <trkpt lat="50.28189" lon="5.20415">
        <ele>253.26268263714</ele>
        <time>2017-06-07T15:51:22Z</time>
      </trkpt>
      <trkpt lat="50.28186" lon="5.20465">
        <ele>255.17581831356</ele>
        <time>2017-06-07T15:51:27Z</time>
      </trkpt>
      <trkpt lat="50.28186" lon="5.20497">
        <ele>255.72852982244</ele>
        <time>2017-06-07T15:51:31Z</time>
      </trkpt>
      <trkpt lat="50.28188" lon="5.20513">
        <ele>255.68474281226</ele>
        <time>2017-06-07T15:51:35Z</time>
      </trkpt>
      <trkpt lat="50.28199" lon="5.20517">
        <ele>254.99884402406</ele>
        <time>2017-06-07T15:51:39Z</time>
      </trkpt>
      <trkpt lat="50.28221" lon="5.20513">
        <ele>255.03003897952</ele>
        <time>2017-06-07T15:51:43Z</time>
      </trkpt>
      <trkpt lat="50.28254" lon="5.20493">
        <ele>256.7477510528</ele>
        <time>2017-06-07T15:51:48Z</time>
      </trkpt>
      <trkpt lat="50.2828" lon="5.20468">
        <ele>257.7683702531</ele>
        <time>2017-06-07T15:51:52Z</time>
      </trkpt>
      <trkpt lat="50.28298" lon="5.20446">
        <ele>262.02322547367</ele>
        <time>2017-06-07T15:51:56Z</time>
      </trkpt>
      <trkpt lat="50.2831" lon="5.20427">
        <ele>265.87506284947</ele>
        <time>2017-06-07T15:52:00Z</time>
      </trkpt>
      <trkpt lat="50.28322" lon="5.20407">
        <ele>267.52252365169</ele>
        <time>2017-06-07T15:52:05Z</time>
      </trkpt>
      <trkpt lat="50.28334" lon="5.20394">
        <ele>266.70594598577</ele>
        <time>2017-06-07T15:52:09Z</time>
      </trkpt>
      <trkpt lat="50.28343" lon="5.20373">
        <ele>266.84664670817</ele>
        <time>2017-06-07T15:52:13Z</time>
      </trkpt>
      <trkpt lat="50.28356" lon="5.20348">
        <ele>270.48510340747</ele>
        <time>2017-06-07T15:52:18Z</time>
      </trkpt>
      <trkpt lat="50.28366" lon="5.20333">
        <ele>271.19629422787</ele>
        <time>2017-06-07T15:52:22Z</time>
      </trkpt>
      <trkpt lat="50.28379" lon="5.20318">
        <ele>271.81839479708</ele>
        <time>2017-06-07T15:52:26Z</time>
      </trkpt>
      <trkpt lat="50.28396" lon="5.20319">
        <ele>274.33474436972</ele>
        <time>2017-06-07T15:52:31Z</time>
      </trkpt>
      <trkpt lat="50.28407" lon="5.20327">
        <ele>276.89191328541</ele>
        <time>2017-06-07T15:52:35Z</time>
      </trkpt>
      <trkpt lat="50.28421" lon="5.20338">
        <ele>273.94471159668</ele>
        <time>2017-06-07T15:52:40Z</time>
      </trkpt>
      <trkpt lat="50.28434" lon="5.20347">
        <ele>270.62807573911</ele>
        <time>2017-06-07T15:52:44Z</time>
      </trkpt>
      <trkpt lat="50.28454" lon="5.20374">
        <ele>269.47205421009</ele>
        <time>2017-06-07T15:52:49Z</time>
      </trkpt>
      <trkpt lat="50.28466" lon="5.204">
        <ele>272.08861503987</ele>
        <time>2017-06-07T15:52:53Z</time>
      </trkpt>
      <trkpt lat="50.28479" lon="5.20429">
        <ele>270.34918303007</ele>
        <time>2017-06-07T15:52:58Z</time>
      </trkpt>
      <trkpt lat="50.28494" lon="5.20466">
        <ele>270.2905351614</ele>
        <time>2017-06-07T15:53:03Z</time>
      </trkpt>
      <trkpt lat="50.28508" lon="5.20493">
        <ele>268.4004459966</ele>
        <time>2017-06-07T15:53:07Z</time>
      </trkpt>
      <trkpt lat="50.28527" lon="5.20525">
        <ele>269.70634853984</ele>
        <time>2017-06-07T15:53:12Z</time>
      </trkpt>
      <trkpt lat="50.28538" lon="5.20543">
        <ele>273.12250277563</ele>
        <time>2017-06-07T15:53:16Z</time>
      </trkpt>
      <trkpt lat="50.28558" lon="5.2057">
        <ele>274.7008593594</ele>
        <time>2017-06-07T15:53:21Z</time>
      </trkpt>
      <trkpt lat="50.2857" lon="5.20588">
        <ele>272.45179103774</ele>
        <time>2017-06-07T15:53:25Z</time>
      </trkpt>
      <trkpt lat="50.28592" lon="5.20613">
        <ele>273.35105416491</ele>
        <time>2017-06-07T15:53:30Z</time>
      </trkpt>
      <trkpt lat="50.28607" lon="5.20628">
        <ele>276.57473054437</ele>
        <time>2017-06-07T15:53:34Z</time>
      </trkpt>
      <trkpt lat="50.28619" lon="5.20639">
        <ele>277.79259049746</ele>
        <time>2017-06-07T15:53:38Z</time>
      </trkpt>
      <trkpt lat="50.28637" lon="5.20657">
        <ele>279.8337464065</ele>
        <time>2017-06-07T15:53:43Z</time>
      </trkpt>
      <trkpt lat="50.28656" lon="5.20679">
        <ele>282.87105040374</ele>
        <time>2017-06-07T15:53:47Z</time>
      </trkpt>
      <trkpt lat="50.28673" lon="5.20697">
        <ele>284.23046439481</ele>
        <time>2017-06-07T15:53:51Z</time>
      </trkpt>
      <trkpt lat="50.28698" lon="5.20718">
        <ele>287.39614089225</ele>
        <time>2017-06-07T15:53:56Z</time>
      </trkpt>
      <trkpt lat="50.28718" lon="5.20733">
        <ele>294.46117112765</ele>
        <time>2017-06-07T15:54:00Z</time>
      </trkpt>
      <trkpt lat="50.28735" lon="5.20746">
        <ele>300.22423977061</ele>
        <time>2017-06-07T15:54:04Z</time>
      </trkpt>
      <trkpt lat="50.28752" lon="5.20757">
        <ele>306.21504142708</ele>
        <time>2017-06-07T15:54:08Z</time>
      </trkpt>
      <trkpt lat="50.28767" lon="5.20766">
        <ele>306.1509177493</ele>
        <time>2017-06-07T15:54:12Z</time>
      </trkpt>
      <trkpt lat="50.28777" lon="5.20773">
        <ele>306.19400116342</ele>
        <time>2017-06-07T15:54:16Z</time>
      </trkpt>
      <trkpt lat="50.28796" lon="5.20784">
        <ele>307.06063592788</ele>
        <time>2017-06-07T15:54:21Z</time>
      </trkpt>
      <trkpt lat="50.2881" lon="5.20793">
        <ele>307.58540556455</ele>
        <time>2017-06-07T15:54:25Z</time>
      </trkpt>
      <trkpt lat="50.28831" lon="5.20806">
        <ele>306.85774739749</ele>
        <time>2017-06-07T15:54:30Z</time>
      </trkpt>
      <trkpt lat="50.28848" lon="5.20817">
        <ele>307.29508384383</ele>
        <time>2017-06-07T15:54:34Z</time>
      </trkpt>
      <trkpt lat="50.28862" lon="5.20829">
        <ele>307.68166400327</ele>
        <time>2017-06-07T15:54:38Z</time>
      </trkpt>
      <trkpt lat="50.28872" lon="5.20836">
        <ele>307.51499249128</ele>
        <time>2017-06-07T15:54:42Z</time>
      </trkpt>
      <trkpt lat="50.28881" lon="5.20843">
        <ele>307.39203689117</ele>
        <time>2017-06-07T15:54:46Z</time>
      </trkpt>
      <trkpt lat="50.28902" lon="5.20855">
        <ele>308.29757121566</ele>
        <time>2017-06-07T15:54:50Z</time>
      </trkpt>
      <trkpt lat="50.28921" lon="5.20863">
        <ele>311.69953215722</ele>
        <time>2017-06-07T15:54:55Z</time>
      </trkpt>
      <trkpt lat="50.28936" lon="5.20867">
        <ele>314.08372761511</ele>
        <time>2017-06-07T15:54:59Z</time>
      </trkpt>
      <trkpt lat="50.28952" lon="5.20875">
        <ele>315.01830943125</ele>
        <time>2017-06-07T15:55:04Z</time>
      </trkpt>
      <trkpt lat="50.28968" lon="5.20884">
        <ele>317.14826684309</ele>
        <time>2017-06-07T15:55:08Z</time>
      </trkpt>
      <trkpt lat="50.28984" lon="5.20891">
        <ele>317.61976725474</ele>
        <time>2017-06-07T15:55:12Z</time>
      </trkpt>
      <trkpt lat="50.29004" lon="5.20897">
        <ele>318.38265792589</ele>
        <time>2017-06-07T15:55:17Z</time>
      </trkpt>
      <trkpt lat="50.29019" lon="5.209">
        <ele>318.29827151757</ele>
        <time>2017-06-07T15:55:21Z</time>
      </trkpt>
      <trkpt lat="50.29038" lon="5.209">
        <ele>318.5363992612</ele>
        <time>2017-06-07T15:55:26Z</time>
      </trkpt>
      <trkpt lat="50.2906" lon="5.20902">
        <ele>320.58940157104</ele>
        <time>2017-06-07T15:55:31Z</time>
      </trkpt>
      <trkpt lat="50.2908" lon="5.20903">
        <ele>322.97859012597</ele>
        <time>2017-06-07T15:55:35Z</time>
      </trkpt>
      <trkpt lat="50.29102" lon="5.20907">
        <ele>324.94972373825</ele>
        <time>2017-06-07T15:55:39Z</time>
      </trkpt>
      <trkpt lat="50.29123" lon="5.2091">
        <ele>326.2911543841</ele>
        <time>2017-06-07T15:55:43Z</time>
      </trkpt>
      <trkpt lat="50.29143" lon="5.20912">
        <ele>325.83727830504</ele>
        <time>2017-06-07T15:55:47Z</time>
      </trkpt>
      <trkpt lat="50.29168" lon="5.20915">
        <ele>325.74587273803</ele>
        <time>2017-06-07T15:55:52Z</time>
      </trkpt>
      <trkpt lat="50.2919" lon="5.20916">
        <ele>326.24650776285</ele>
        <time>2017-06-07T15:55:56Z</time>
      </trkpt>
      <trkpt lat="50.29212" lon="5.20919">
        <ele>326.25595416573</ele>
        <time>2017-06-07T15:56:00Z</time>
      </trkpt>
      <trkpt lat="50.29235" lon="5.20921">
        <ele>325.93570701604</ele>
        <time>2017-06-07T15:56:04Z</time>
      </trkpt>
      <trkpt lat="50.29259" lon="5.20923">
        <ele>324.76332480767</ele>
        <time>2017-06-07T15:56:08Z</time>
      </trkpt>
      <trkpt lat="50.29288" lon="5.20926">
        <ele>324.08693145645</ele>
        <time>2017-06-07T15:56:13Z</time>
      </trkpt>
      <trkpt lat="50.29316" lon="5.20927">
        <ele>325.97154943823</ele>
        <time>2017-06-07T15:56:18Z</time>
      </trkpt>
      <trkpt lat="50.29345" lon="5.20928">
        <ele>325.7102756769</ele>
        <time>2017-06-07T15:56:23Z</time>
      </trkpt>
      <trkpt lat="50.29368" lon="5.20929">
        <ele>327.17027580008</ele>
        <time>2017-06-07T15:56:27Z</time>
      </trkpt>
      <trkpt lat="50.29397" lon="5.2093">
        <ele>327.20551708493</ele>
        <time>2017-06-07T15:56:32Z</time>
      </trkpt>
      <trkpt lat="50.29427" lon="5.20931">
        <ele>327.05304621663</ele>
        <time>2017-06-07T15:56:37Z</time>
      </trkpt>
      <trkpt lat="50.29458" lon="5.20933">
        <ele>326.40761172163</ele>
        <time>2017-06-07T15:56:42Z</time>
      </trkpt>
      <trkpt lat="50.29482" lon="5.20935">
        <ele>325.92745436001</ele>
        <time>2017-06-07T15:56:46Z</time>
      </trkpt>
      <trkpt lat="50.29506" lon="5.20938">
        <ele>325.25168864279</ele>
        <time>2017-06-07T15:56:50Z</time>
      </trkpt>
      <trkpt lat="50.2953" lon="5.20939">
        <ele>325.28819691312</ele>
        <time>2017-06-07T15:56:54Z</time>
      </trkpt>
      <trkpt lat="50.29561" lon="5.20941">
        <ele>324.33297577407</ele>
        <time>2017-06-07T15:56:59Z</time>
      </trkpt>
      <trkpt lat="50.29586" lon="5.20943">
        <ele>322.96780922641</ele>
        <time>2017-06-07T15:57:03Z</time>
      </trkpt>
      <trkpt lat="50.2961" lon="5.20942">
        <ele>325.14967265368</ele>
        <time>2017-06-07T15:57:07Z</time>
      </trkpt>
      <trkpt lat="50.29642" lon="5.20924">
        <ele>333.16735893948</ele>
        <time>2017-06-07T15:57:12Z</time>
      </trkpt>
      <trkpt lat="50.29662" lon="5.20911">
        <ele>338.34535795434</ele>
        <time>2017-06-07T15:57:16Z</time>
      </trkpt>
      <trkpt lat="50.29675" lon="5.20905">
        <ele>338.86910917869</ele>
        <time>2017-06-07T15:57:21Z</time>
      </trkpt>
      <trkpt lat="50.29696" lon="5.2092">
        <ele>347.94227366024</ele>
        <time>2017-06-07T15:57:26Z</time>
      </trkpt>
      <trkpt lat="50.29718" lon="5.20953">
        <ele>347.1872279856</ele>
        <time>2017-06-07T15:57:31Z</time>
      </trkpt>
      <trkpt lat="50.29727" lon="5.20965">
        <ele>344.38636701496</ele>
        <time>2017-06-07T15:57:35Z</time>
      </trkpt>
      <trkpt lat="50.29754" lon="5.21001">
        <ele>345.54439555031</ele>
        <time>2017-06-07T15:57:40Z</time>
      </trkpt>
      <trkpt lat="50.29782" lon="5.2104">
        <ele>345.2220377276</ele>
        <time>2017-06-07T15:57:45Z</time>
      </trkpt>
      <trkpt lat="50.29805" lon="5.21074">
        <ele>344.02158609108</ele>
        <time>2017-06-07T15:57:49Z</time>
      </trkpt>
      <trkpt lat="50.29831" lon="5.21113">
        <ele>339.13329165641</ele>
        <time>2017-06-07T15:57:54Z</time>
      </trkpt>
      <trkpt lat="50.29857" lon="5.21149">
        <ele>337.51679499722</ele>
        <time>2017-06-07T15:57:58Z</time>
      </trkpt>
      <trkpt lat="50.29895" lon="5.21187">
        <ele>340.05151220947</ele>
        <time>2017-06-07T15:58:03Z</time>
      </trkpt>
      <trkpt lat="50.29922" lon="5.21216">
        <ele>337.44977228082</ele>
        <time>2017-06-07T15:58:07Z</time>
      </trkpt>
      <trkpt lat="50.29948" lon="5.21238">
        <ele>333.65570118086</ele>
        <time>2017-06-07T15:58:11Z</time>
      </trkpt>
      <trkpt lat="50.29969" lon="5.21263">
        <ele>331.63775262064</ele>
        <time>2017-06-07T15:58:15Z</time>
      </trkpt>
      <trkpt lat="50.29987" lon="5.21294">
        <ele>330.28349493342</ele>
        <time>2017-06-07T15:58:19Z</time>
      </trkpt>
      <trkpt lat="50.30005" lon="5.21323">
        <ele>327.6260020932</ele>
        <time>2017-06-07T15:58:23Z</time>
      </trkpt>
      <trkpt lat="50.30023" lon="5.21351">
        <ele>324.96896863156</ele>
        <time>2017-06-07T15:58:27Z</time>
      </trkpt>
      <trkpt lat="50.30044" lon="5.21386">
        <ele>323.36046017226</ele>
        <time>2017-06-07T15:58:32Z</time>
      </trkpt>
      <trkpt lat="50.30065" lon="5.21418">
        <ele>324.18399114747</ele>
        <time>2017-06-07T15:58:37Z</time>
      </trkpt>
      <trkpt lat="50.30082" lon="5.21448">
        <ele>325.33655018705</ele>
        <time>2017-06-07T15:58:41Z</time>
      </trkpt>
      <trkpt lat="50.301" lon="5.21478">
        <ele>325.74486316675</ele>
        <time>2017-06-07T15:58:45Z</time>
      </trkpt>
      <trkpt lat="50.3012" lon="5.21514">
        <ele>324.45804139017</ele>
        <time>2017-06-07T15:58:50Z</time>
      </trkpt>
      <trkpt lat="50.30139" lon="5.21546">
        <ele>324.24056125503</ele>
        <time>2017-06-07T15:58:54Z</time>
      </trkpt>
      <trkpt lat="50.30159" lon="5.21577">
        <ele>323.94776573569</ele>
        <time>2017-06-07T15:58:58Z</time>
      </trkpt>
      <trkpt lat="50.30181" lon="5.21612">
        <ele>323.08906525863</ele>
        <time>2017-06-07T15:59:03Z</time>
      </trkpt>
      <trkpt lat="50.30197" lon="5.21639">
        <ele>323.02445556809</ele>
        <time>2017-06-07T15:59:07Z</time>
      </trkpt>
      <trkpt lat="50.30219" lon="5.21676">
        <ele>324.62669180702</ele>
        <time>2017-06-07T15:59:12Z</time>
      </trkpt>
      <trkpt lat="50.3024" lon="5.21712">
        <ele>325.46366543988</ele>
        <time>2017-06-07T15:59:17Z</time>
      </trkpt>
      <trkpt lat="50.30256" lon="5.21739">
        <ele>324.80722207342</ele>
        <time>2017-06-07T15:59:21Z</time>
      </trkpt>
      <trkpt lat="50.30273" lon="5.21769">
        <ele>324.64355288017</ele>
        <time>2017-06-07T15:59:25Z</time>
      </trkpt>
      <trkpt lat="50.30299" lon="5.21812">
        <ele>324.17026264506</ele>
        <time>2017-06-07T15:59:30Z</time>
      </trkpt>
      <trkpt lat="50.30317" lon="5.21842">
        <ele>323.33452417747</ele>
        <time>2017-06-07T15:59:34Z</time>
      </trkpt>
      <trkpt lat="50.3034" lon="5.21879">
        <ele>324.5498362351</ele>
        <time>2017-06-07T15:59:39Z</time>
      </trkpt>
      <trkpt lat="50.30357" lon="5.21908">
        <ele>325.67683057991</ele>
        <time>2017-06-07T15:59:43Z</time>
      </trkpt>
      <trkpt lat="50.30379" lon="5.21946">
        <ele>327.35686914212</ele>
        <time>2017-06-07T15:59:48Z</time>
      </trkpt>
      <trkpt lat="50.30396" lon="5.21979">
        <ele>328.21544949342</ele>
        <time>2017-06-07T15:59:52Z</time>
      </trkpt>
      <trkpt lat="50.30413" lon="5.22015">
        <ele>328.73427746959</ele>
        <time>2017-06-07T15:59:56Z</time>
      </trkpt>
      <trkpt lat="50.30432" lon="5.22058">
        <ele>329.63765552773</ele>
        <time>2017-06-07T16:00:01Z</time>
      </trkpt>
      <trkpt lat="50.30449" lon="5.22092">
        <ele>331.13520301776</ele>
        <time>2017-06-07T16:00:05Z</time>
      </trkpt>
      <trkpt lat="50.30466" lon="5.22126">
        <ele>331.10683524986</ele>
        <time>2017-06-07T16:00:09Z</time>
      </trkpt>
      <trkpt lat="50.30486" lon="5.22169">
        <ele>331.73808156838</ele>
        <time>2017-06-07T16:00:14Z</time>
      </trkpt>
      <trkpt lat="50.30502" lon="5.22203">
        <ele>332.0618957602</ele>
        <time>2017-06-07T16:00:18Z</time>
      </trkpt>
      <trkpt lat="50.30517" lon="5.22237">
        <ele>331.32931992425</ele>
        <time>2017-06-07T16:00:22Z</time>
      </trkpt>
      <trkpt lat="50.30533" lon="5.22272">
        <ele>330.44126288319</ele>
        <time>2017-06-07T16:00:26Z</time>
      </trkpt>
      <trkpt lat="50.30551" lon="5.22317">
        <ele>327.65180792575</ele>
        <time>2017-06-07T16:00:31Z</time>
      </trkpt>
      <trkpt lat="50.30559" lon="5.22358">
        <ele>326.02839777692</ele>
        <time>2017-06-07T16:00:35Z</time>
      </trkpt>
      <trkpt lat="50.30564" lon="5.22398">
        <ele>324.77338754118</ele>
        <time>2017-06-07T16:00:40Z</time>
      </trkpt>
      <trkpt lat="50.30562" lon="5.22412">
        <ele>324.29401667931</ele>
        <time>2017-06-07T16:01:26Z</time>
      </trkpt>
      <trkpt lat="50.30569" lon="5.22445">
        <ele>320.77405102748</ele>
        <time>2017-06-07T16:01:31Z</time>
      </trkpt>
      <trkpt lat="50.30581" lon="5.22481">
        <ele>317.83425704716</ele>
        <time>2017-06-07T16:01:35Z</time>
      </trkpt>
      <trkpt lat="50.30597" lon="5.22517">
        <ele>315.97097216112</ele>
        <time>2017-06-07T16:01:39Z</time>
      </trkpt>
      <trkpt lat="50.30616" lon="5.2255">
        <ele>315.7577291237</ele>
        <time>2017-06-07T16:01:43Z</time>
      </trkpt>
      <trkpt lat="50.30633" lon="5.2258">
        <ele>317.36913734554</ele>
        <time>2017-06-07T16:01:47Z</time>
      </trkpt>
      <trkpt lat="50.30653" lon="5.22618">
        <ele>318.87646472715</ele>
        <time>2017-06-07T16:01:52Z</time>
      </trkpt>
      <trkpt lat="50.30676" lon="5.22658">
        <ele>320.06226524219</ele>
        <time>2017-06-07T16:01:57Z</time>
      </trkpt>
      <trkpt lat="50.30696" lon="5.22691">
        <ele>322.16027119096</ele>
        <time>2017-06-07T16:02:01Z</time>
      </trkpt>
      <trkpt lat="50.30713" lon="5.2272">
        <ele>323.64945149011</ele>
        <time>2017-06-07T16:02:05Z</time>
      </trkpt>
      <trkpt lat="50.30731" lon="5.22753">
        <ele>324.52339799273</ele>
        <time>2017-06-07T16:02:10Z</time>
      </trkpt>
      <trkpt lat="50.3075" lon="5.2278">
        <ele>325.2448646827</ele>
        <time>2017-06-07T16:02:15Z</time>
      </trkpt>
      <trkpt lat="50.30766" lon="5.22801">
        <ele>325.66245704166</ele>
        <time>2017-06-07T16:02:19Z</time>
      </trkpt>
      <trkpt lat="50.30783" lon="5.22822">
        <ele>327.13811236716</ele>
        <time>2017-06-07T16:02:24Z</time>
      </trkpt>
      <trkpt lat="50.30798" lon="5.22817">
        <ele>328.01165274728</ele>
        <time>2017-06-07T16:02:28Z</time>
      </trkpt>
      <trkpt lat="50.30816" lon="5.22785">
        <ele>331.53416972983</ele>
        <time>2017-06-07T16:02:33Z</time>
      </trkpt>
      <trkpt lat="50.30831" lon="5.22753">
        <ele>330.26882193268</ele>
        <time>2017-06-07T16:02:37Z</time>
      </trkpt>
      <trkpt lat="50.30846" lon="5.2272">
        <ele>329.68842713724</ele>
        <time>2017-06-07T16:02:41Z</time>
      </trkpt>
      <trkpt lat="50.30867" lon="5.22676">
        <ele>327.83945081755</ele>
        <time>2017-06-07T16:02:46Z</time>
      </trkpt>
      <trkpt lat="50.30882" lon="5.2264">
        <ele>327.28126795859</ele>
        <time>2017-06-07T16:02:50Z</time>
      </trkpt>
      <trkpt lat="50.30897" lon="5.22605">
        <ele>328.93379502795</ele>
        <time>2017-06-07T16:02:54Z</time>
      </trkpt>
      <trkpt lat="50.30913" lon="5.22576">
        <ele>328.24865590327</ele>
        <time>2017-06-07T16:02:58Z</time>
      </trkpt>
      <trkpt lat="50.30918" lon="5.22531">
        <ele>326.93347208584</ele>
        <time>2017-06-07T16:03:02Z</time>
      </trkpt>
      <trkpt lat="50.3093" lon="5.22472">
        <ele>325.86618007657</ele>
        <time>2017-06-07T16:03:07Z</time>
      </trkpt>
      <trkpt lat="50.30939" lon="5.22426">
        <ele>324.26745402855</ele>
        <time>2017-06-07T16:03:11Z</time>
      </trkpt>
      <trkpt lat="50.3095" lon="5.22385">
        <ele>324.09798710624</ele>
        <time>2017-06-07T16:03:15Z</time>
      </trkpt>
      <trkpt lat="50.30972" lon="5.22337">
        <ele>320.84295337176</ele>
        <time>2017-06-07T16:03:20Z</time>
      </trkpt>
      <trkpt lat="50.30995" lon="5.22298">
        <ele>317.38295481861</ele>
        <time>2017-06-07T16:03:24Z</time>
      </trkpt>
      <trkpt lat="50.31019" lon="5.22261">
        <ele>314.28334999222</ele>
        <time>2017-06-07T16:03:28Z</time>
      </trkpt>
      <trkpt lat="50.31052" lon="5.22208">
        <ele>307.83035886743</ele>
        <time>2017-06-07T16:03:33Z</time>
      </trkpt>
      <trkpt lat="50.31075" lon="5.22161">
        <ele>303.98203447455</ele>
        <time>2017-06-07T16:03:37Z</time>
      </trkpt>
      <trkpt lat="50.31093" lon="5.22112">
        <ele>302.92061555622</ele>
        <time>2017-06-07T16:03:41Z</time>
      </trkpt>
      <trkpt lat="50.31114" lon="5.22054">
        <ele>305.98923703998</ele>
        <time>2017-06-07T16:03:46Z</time>
      </trkpt>
      <trkpt lat="50.31118" lon="5.22">
        <ele>308.31208923289</ele>
        <time>2017-06-07T16:03:51Z</time>
      </trkpt>
      <trkpt lat="50.31118" lon="5.21947">
        <ele>307.9930270583</ele>
        <time>2017-06-07T16:03:56Z</time>
      </trkpt>
      <trkpt lat="50.31116" lon="5.21906">
        <ele>308.51717461384</ele>
        <time>2017-06-07T16:04:00Z</time>
      </trkpt>
      <trkpt lat="50.31109" lon="5.2186">
        <ele>311.07473628132</ele>
        <time>2017-06-07T16:04:05Z</time>
      </trkpt>
      <trkpt lat="50.31102" lon="5.21823">
        <ele>310.02496140207</ele>
        <time>2017-06-07T16:04:09Z</time>
      </trkpt>
      <trkpt lat="50.31093" lon="5.21784">
        <ele>307.92680182861</ele>
        <time>2017-06-07T16:04:13Z</time>
      </trkpt>
      <trkpt lat="50.31078" lon="5.21743">
        <ele>306.21464965519</ele>
        <time>2017-06-07T16:04:18Z</time>
      </trkpt>
      <trkpt lat="50.31068" lon="5.21716">
        <ele>306.19002024817</ele>
        <time>2017-06-07T16:04:22Z</time>
      </trkpt>
      <trkpt lat="50.31057" lon="5.21689">
        <ele>307.66566774548</ele>
        <time>2017-06-07T16:04:26Z</time>
      </trkpt>
      <trkpt lat="50.31046" lon="5.21659">
        <ele>308.37834832381</ele>
        <time>2017-06-07T16:04:30Z</time>
      </trkpt>
      <trkpt lat="50.3103" lon="5.21619">
        <ele>309.35231678209</ele>
        <time>2017-06-07T16:04:35Z</time>
      </trkpt>
      <trkpt lat="50.31013" lon="5.21581">
        <ele>309.57577956195</ele>
        <time>2017-06-07T16:04:40Z</time>
      </trkpt>
      <trkpt lat="50.30999" lon="5.21553">
        <ele>309.26069044242</ele>
        <time>2017-06-07T16:04:44Z</time>
      </trkpt>
      <trkpt lat="50.30985" lon="5.21526">
        <ele>308.33981362749</ele>
        <time>2017-06-07T16:04:48Z</time>
      </trkpt>
      <trkpt lat="50.30971" lon="5.21502">
        <ele>308.70564035479</ele>
        <time>2017-06-07T16:04:52Z</time>
      </trkpt>
      <trkpt lat="50.30955" lon="5.21474">
        <ele>308.54596477319</ele>
        <time>2017-06-07T16:04:56Z</time>
      </trkpt>
      <trkpt lat="50.30935" lon="5.21435">
        <ele>306.96214416108</ele>
        <time>2017-06-07T16:05:01Z</time>
      </trkpt>
      <trkpt lat="50.3092" lon="5.21405">
        <ele>306.01339572602</ele>
        <time>2017-06-07T16:05:05Z</time>
      </trkpt>
      <trkpt lat="50.30906" lon="5.21373">
        <ele>305.71707506959</ele>
        <time>2017-06-07T16:05:10Z</time>
      </trkpt>
      <trkpt lat="50.30918" lon="5.21366">
        <ele>306.3527437905</ele>
        <time>2017-06-07T16:05:14Z</time>
      </trkpt>
      <trkpt lat="50.30936" lon="5.21379">
        <ele>307.364022983</ele>
        <time>2017-06-07T16:05:18Z</time>
      </trkpt>
      <trkpt lat="50.30958" lon="5.21394">
        <ele>309.51235771538</ele>
        <time>2017-06-07T16:05:22Z</time>
      </trkpt>
      <trkpt lat="50.30983" lon="5.21372">
        <ele>311.23758971572</ele>
        <time>2017-06-07T16:05:27Z</time>
      </trkpt>
      <trkpt lat="50.31004" lon="5.21354">
        <ele>312.44875645473</ele>
        <time>2017-06-07T16:05:31Z</time>
      </trkpt>
      <trkpt lat="50.31036" lon="5.21362">
        <ele>310.20563010342</ele>
        <time>2017-06-07T16:05:36Z</time>
      </trkpt>
      <trkpt lat="50.31068" lon="5.21381">
        <ele>310.00180129779</ele>
        <time>2017-06-07T16:05:41Z</time>
      </trkpt>
      <trkpt lat="50.31097" lon="5.21404">
        <ele>308.69581403573</ele>
        <time>2017-06-07T16:05:46Z</time>
      </trkpt>
      <trkpt lat="50.3112" lon="5.2142">
        <ele>308.05755427132</ele>
        <time>2017-06-07T16:05:50Z</time>
      </trkpt>
      <trkpt lat="50.31144" lon="5.21439">
        <ele>306.95426759311</ele>
        <time>2017-06-07T16:05:54Z</time>
      </trkpt>
      <trkpt lat="50.31167" lon="5.21455">
        <ele>304.89546089159</ele>
        <time>2017-06-07T16:05:58Z</time>
      </trkpt>
      <trkpt lat="50.31197" lon="5.21474">
        <ele>304.86428399514</ele>
        <time>2017-06-07T16:06:03Z</time>
      </trkpt>
      <trkpt lat="50.31229" lon="5.21497">
        <ele>305.81471839435</ele>
        <time>2017-06-07T16:06:08Z</time>
      </trkpt>
      <trkpt lat="50.31253" lon="5.21518">
        <ele>305.73879195192</ele>
        <time>2017-06-07T16:06:12Z</time>
      </trkpt>
      <trkpt lat="50.31278" lon="5.21541">
        <ele>304.93941626264</ele>
        <time>2017-06-07T16:06:16Z</time>
      </trkpt>
      <trkpt lat="50.31312" lon="5.21572">
        <ele>302.27159478094</ele>
        <time>2017-06-07T16:06:21Z</time>
      </trkpt>
      <trkpt lat="50.31338" lon="5.21594">
        <ele>299.32498290751</ele>
        <time>2017-06-07T16:06:25Z</time>
      </trkpt>
      <trkpt lat="50.31374" lon="5.21618">
        <ele>297.97264559106</ele>
        <time>2017-06-07T16:06:30Z</time>
      </trkpt>
      <trkpt lat="50.31406" lon="5.21634">
        <ele>297.87495207776</ele>
        <time>2017-06-07T16:06:34Z</time>
      </trkpt>
      <trkpt lat="50.3144" lon="5.21654">
        <ele>297.51449789634</ele>
        <time>2017-06-07T16:06:38Z</time>
      </trkpt>
      <trkpt lat="50.31476" lon="5.21676">
        <ele>296.38718040334</ele>
        <time>2017-06-07T16:06:42Z</time>
      </trkpt>
      <trkpt lat="50.31522" lon="5.2171">
        <ele>293.4957631933</ele>
        <time>2017-06-07T16:06:47Z</time>
      </trkpt>
      <trkpt lat="50.31555" lon="5.21752">
        <ele>291.22062604515</ele>
        <time>2017-06-07T16:06:51Z</time>
      </trkpt>
      <trkpt lat="50.31591" lon="5.21809">
        <ele>287.14069108006</ele>
        <time>2017-06-07T16:06:56Z</time>
      </trkpt>
      <trkpt lat="50.31624" lon="5.21858">
        <ele>284.05824813937</ele>
        <time>2017-06-07T16:07:01Z</time>
      </trkpt>
      <trkpt lat="50.31654" lon="5.21902">
        <ele>284.19002788207</ele>
        <time>2017-06-07T16:07:06Z</time>
      </trkpt>
      <trkpt lat="50.31678" lon="5.21935">
        <ele>284.19537965272</ele>
        <time>2017-06-07T16:07:10Z</time>
      </trkpt>
      <trkpt lat="50.31707" lon="5.21976">
        <ele>283.83161298638</ele>
        <time>2017-06-07T16:07:15Z</time>
      </trkpt>
      <trkpt lat="50.31737" lon="5.22016">
        <ele>284.24923899401</ele>
        <time>2017-06-07T16:07:20Z</time>
      </trkpt>
      <trkpt lat="50.31769" lon="5.22059">
        <ele>284.88912185198</ele>
        <time>2017-06-07T16:07:25Z</time>
      </trkpt>
      <trkpt lat="50.318" lon="5.22092">
        <ele>284.48035917432</ele>
        <time>2017-06-07T16:07:29Z</time>
      </trkpt>
      <trkpt lat="50.31831" lon="5.22121">
        <ele>284.90100345214</ele>
        <time>2017-06-07T16:07:33Z</time>
      </trkpt>
      <trkpt lat="50.31859" lon="5.22147">
        <ele>285.99973062275</ele>
        <time>2017-06-07T16:07:37Z</time>
      </trkpt>
      <trkpt lat="50.31884" lon="5.22175">
        <ele>286.97406573303</ele>
        <time>2017-06-07T16:07:42Z</time>
      </trkpt>
      <trkpt lat="50.31902" lon="5.22202">
        <ele>287.34968017444</ele>
        <time>2017-06-07T16:07:46Z</time>
      </trkpt>
      <trkpt lat="50.31925" lon="5.22234">
        <ele>286.81378798921</ele>
        <time>2017-06-07T16:07:51Z</time>
      </trkpt>
      <trkpt lat="50.31949" lon="5.22269">
        <ele>286.28158382727</ele>
        <time>2017-06-07T16:07:56Z</time>
      </trkpt>
      <trkpt lat="50.31968" lon="5.22297">
        <ele>284.14957059054</ele>
        <time>2017-06-07T16:08:00Z</time>
      </trkpt>
      <trkpt lat="50.31992" lon="5.22334">
        <ele>283.52763430541</ele>
        <time>2017-06-07T16:08:05Z</time>
      </trkpt>
      <trkpt lat="50.3201" lon="5.2236">
        <ele>284.16547401723</ele>
        <time>2017-06-07T16:08:09Z</time>
      </trkpt>
      <trkpt lat="50.32028" lon="5.22383">
        <ele>284.75378866811</ele>
        <time>2017-06-07T16:08:13Z</time>
      </trkpt>
      <trkpt lat="50.32113" lon="5.22491">
        <ele>288.14089941016</ele>
        <time>2017-06-07T16:08:30Z</time>
      </trkpt>
      <trkpt lat="50.32138" lon="5.22516">
        <ele>293.76445547938</ele>
        <time>2017-06-07T16:08:34Z</time>
      </trkpt>
      <trkpt lat="50.32162" lon="5.22546">
        <ele>302.19443269454</ele>
        <time>2017-06-07T16:08:39Z</time>
      </trkpt>
      <trkpt lat="50.3218" lon="5.22565">
        <ele>302.46917740732</ele>
        <time>2017-06-07T16:08:43Z</time>
      </trkpt>
      <trkpt lat="50.32198" lon="5.2258">
        <ele>301.95218539736</ele>
        <time>2017-06-07T16:08:48Z</time>
      </trkpt>
      <trkpt lat="50.32211" lon="5.22594">
        <ele>302.37176786682</ele>
        <time>2017-06-07T16:08:52Z</time>
      </trkpt>
      <trkpt lat="50.32227" lon="5.22611">
        <ele>300.33163308695</ele>
        <time>2017-06-07T16:08:57Z</time>
      </trkpt>
      <trkpt lat="50.32245" lon="5.22633">
        <ele>298.05880522541</ele>
        <time>2017-06-07T16:09:02Z</time>
      </trkpt>
      <trkpt lat="50.32264" lon="5.22651">
        <ele>298.68705321083</ele>
        <time>2017-06-07T16:09:06Z</time>
      </trkpt>
      <trkpt lat="50.32289" lon="5.22669">
        <ele>300.97603917483</ele>
        <time>2017-06-07T16:09:11Z</time>
      </trkpt>
      <trkpt lat="50.32312" lon="5.22689">
        <ele>302.71123880929</ele>
        <time>2017-06-07T16:09:16Z</time>
      </trkpt>
      <trkpt lat="50.3233" lon="5.22708">
        <ele>304.23057423367</ele>
        <time>2017-06-07T16:09:20Z</time>
      </trkpt>
      <trkpt lat="50.32348" lon="5.22727">
        <ele>305.51270609164</ele>
        <time>2017-06-07T16:09:24Z</time>
      </trkpt>
      <trkpt lat="50.32367" lon="5.22748">
        <ele>306.64395842213</ele>
        <time>2017-06-07T16:09:28Z</time>
      </trkpt>
      <trkpt lat="50.32391" lon="5.22775">
        <ele>307.97909903135</ele>
        <time>2017-06-07T16:09:33Z</time>
      </trkpt>
      <trkpt lat="50.32411" lon="5.22801">
        <ele>309.67081307192</ele>
        <time>2017-06-07T16:09:37Z</time>
      </trkpt>
      <trkpt lat="50.32437" lon="5.22828">
        <ele>310.44644208636</ele>
        <time>2017-06-07T16:09:42Z</time>
      </trkpt>
      <trkpt lat="50.32456" lon="5.22849">
        <ele>309.93978605547</ele>
        <time>2017-06-07T16:09:46Z</time>
      </trkpt>
      <trkpt lat="50.32476" lon="5.22867">
        <ele>308.76569973318</ele>
        <time>2017-06-07T16:09:50Z</time>
      </trkpt>
      <trkpt lat="50.32498" lon="5.22879">
        <ele>307.27328441834</ele>
        <time>2017-06-07T16:09:54Z</time>
      </trkpt>
      <trkpt lat="50.32516" lon="5.22889">
        <ele>305.4457592049</ele>
        <time>2017-06-07T16:09:58Z</time>
      </trkpt>
      <trkpt lat="50.32536" lon="5.22901">
        <ele>304.72196619939</ele>
        <time>2017-06-07T16:10:02Z</time>
      </trkpt>
      <trkpt lat="50.32561" lon="5.22917">
        <ele>305.70526668212</ele>
        <time>2017-06-07T16:10:07Z</time>
      </trkpt>
      <trkpt lat="50.3258" lon="5.22927">
        <ele>308.20134701998</ele>
        <time>2017-06-07T16:10:12Z</time>
      </trkpt>
      <trkpt lat="50.32589" lon="5.22921">
        <ele>308.71953071915</ele>
        <time>2017-06-07T16:10:16Z</time>
      </trkpt>
      <trkpt lat="50.32598" lon="5.22906">
        <ele>309.43246410294</ele>
        <time>2017-06-07T16:10:20Z</time>
      </trkpt>
      <trkpt lat="50.32611" lon="5.22889">
        <ele>310.27186999621</ele>
        <time>2017-06-07T16:10:25Z</time>
      </trkpt>
      <trkpt lat="50.32623" lon="5.22879">
        <ele>310.87136156956</ele>
        <time>2017-06-07T16:10:29Z</time>
      </trkpt>
      <trkpt lat="50.32637" lon="5.22879">
        <ele>311.53919458148</ele>
        <time>2017-06-07T16:10:34Z</time>
      </trkpt>
      <trkpt lat="50.32649" lon="5.22886">
        <ele>312.16881980804</ele>
        <time>2017-06-07T16:10:38Z</time>
      </trkpt>
      <trkpt lat="50.32662" lon="5.22896">
        <ele>314.50381628141</ele>
        <time>2017-06-07T16:10:42Z</time>
      </trkpt>
      <trkpt lat="50.32677" lon="5.22907">
        <ele>318.29820821544</ele>
        <time>2017-06-07T16:10:46Z</time>
      </trkpt>
      <trkpt lat="50.32694" lon="5.22916">
        <ele>320.86497433242</ele>
        <time>2017-06-07T16:10:50Z</time>
      </trkpt>
      <trkpt lat="50.32711" lon="5.22925">
        <ele>321.67501721402</ele>
        <time>2017-06-07T16:10:54Z</time>
      </trkpt>
      <trkpt lat="50.32728" lon="5.22932">
        <ele>322.58736022735</ele>
        <time>2017-06-07T16:10:58Z</time>
      </trkpt>
      <trkpt lat="50.32747" lon="5.22936">
        <ele>324.61841246889</ele>
        <time>2017-06-07T16:11:02Z</time>
      </trkpt>
      <trkpt lat="50.3277" lon="5.22934">
        <ele>326.23119938381</ele>
        <time>2017-06-07T16:11:07Z</time>
      </trkpt>
      <trkpt lat="50.3279" lon="5.22929">
        <ele>328.49730082958</ele>
        <time>2017-06-07T16:11:11Z</time>
      </trkpt>
      <trkpt lat="50.32808" lon="5.22923">
        <ele>330.23469007316</ele>
        <time>2017-06-07T16:11:15Z</time>
      </trkpt>
      <trkpt lat="50.32828" lon="5.22918">
        <ele>334.32388539572</ele>
        <time>2017-06-07T16:11:19Z</time>
      </trkpt>
      <trkpt lat="50.32849" lon="5.22912">
        <ele>337.21662342274</ele>
        <time>2017-06-07T16:11:23Z</time>
      </trkpt>
      <trkpt lat="50.32866" lon="5.22906">
        <ele>337.68126819334</ele>
        <time>2017-06-07T16:11:27Z</time>
      </trkpt>
      <trkpt lat="50.32891" lon="5.22895">
        <ele>337.92177684856</ele>
        <time>2017-06-07T16:11:32Z</time>
      </trkpt>
      <trkpt lat="50.32917" lon="5.22884">
        <ele>333.70589276543</ele>
        <time>2017-06-07T16:11:37Z</time>
      </trkpt>
      <trkpt lat="50.32935" lon="5.22879">
        <ele>332.89006105899</ele>
        <time>2017-06-07T16:11:41Z</time>
      </trkpt>
      <trkpt lat="50.32957" lon="5.22875">
        <ele>330.60899586353</ele>
        <time>2017-06-07T16:11:45Z</time>
      </trkpt>
      <trkpt lat="50.32986" lon="5.22869">
        <ele>327.67643755355</ele>
        <time>2017-06-07T16:11:50Z</time>
      </trkpt>
      <trkpt lat="50.33019" lon="5.22869">
        <ele>326.34933922636</ele>
        <time>2017-06-07T16:11:55Z</time>
      </trkpt>
      <trkpt lat="50.33048" lon="5.22863">
        <ele>325.51078170755</ele>
        <time>2017-06-07T16:11:59Z</time>
      </trkpt>
      <trkpt lat="50.33084" lon="5.22837">
        <ele>324.50228205858</ele>
        <time>2017-06-07T16:12:04Z</time>
      </trkpt>
      <trkpt lat="50.33119" lon="5.22818">
        <ele>319.21539155129</ele>
        <time>2017-06-07T16:12:08Z</time>
      </trkpt>
      <trkpt lat="50.33157" lon="5.22807">
        <ele>316.48705475631</ele>
        <time>2017-06-07T16:12:12Z</time>
      </trkpt>
      <trkpt lat="50.33199" lon="5.22793">
        <ele>317.00039155799</ele>
        <time>2017-06-07T16:12:17Z</time>
      </trkpt>
      <trkpt lat="50.3323" lon="5.22776">
        <ele>316.43669357041</ele>
        <time>2017-06-07T16:12:21Z</time>
      </trkpt>
      <trkpt lat="50.33262" lon="5.22747">
        <ele>320.98216473281</ele>
        <time>2017-06-07T16:12:26Z</time>
      </trkpt>
      <trkpt lat="50.33285" lon="5.22747">
        <ele>323.59201007714</ele>
        <time>2017-06-07T16:12:31Z</time>
      </trkpt>
      <trkpt lat="50.33295" lon="5.22738">
        <ele>324.24929869461</ele>
        <time>2017-06-07T16:12:35Z</time>
      </trkpt>
      <trkpt lat="50.33289" lon="5.22711">
        <ele>325.76838861645</ele>
        <time>2017-06-07T16:12:39Z</time>
      </trkpt>
      <trkpt lat="50.33287" lon="5.22679">
        <ele>325.1470530651</ele>
        <time>2017-06-07T16:12:43Z</time>
      </trkpt>
      <trkpt lat="50.33287" lon="5.22644">
        <ele>323.51477248849</ele>
        <time>2017-06-07T16:12:47Z</time>
      </trkpt>
      <trkpt lat="50.33287" lon="5.22618">
        <ele>323.32588957658</ele>
        <time>2017-06-07T16:12:51Z</time>
      </trkpt>
      <trkpt lat="50.33287" lon="5.22582">
        <ele>323.47554135798</ele>
        <time>2017-06-07T16:12:56Z</time>
      </trkpt>
      <trkpt lat="50.33284" lon="5.22538">
        <ele>324.52685084571</ele>
        <time>2017-06-07T16:13:01Z</time>
      </trkpt>
      <trkpt lat="50.33282" lon="5.22493">
        <ele>330.67401452541</ele>
        <time>2017-06-07T16:13:05Z</time>
      </trkpt>
      <trkpt lat="50.33282" lon="5.22454">
        <ele>331.98646215343</ele>
        <time>2017-06-07T16:13:10Z</time>
      </trkpt>
      <trkpt lat="50.33278" lon="5.22407">
        <ele>333.22937733212</ele>
        <time>2017-06-07T16:13:15Z</time>
      </trkpt>
      <trkpt lat="50.33267" lon="5.22359">
        <ele>332.83718485921</ele>
        <time>2017-06-07T16:13:20Z</time>
      </trkpt>
      <trkpt lat="50.33256" lon="5.22325">
        <ele>329.11640240864</ele>
        <time>2017-06-07T16:13:24Z</time>
      </trkpt>
      <trkpt lat="50.33245" lon="5.22271">
        <ele>327.42879389522</ele>
        <time>2017-06-07T16:13:29Z</time>
      </trkpt>
      <trkpt lat="50.33239" lon="5.22235">
        <ele>324.39509755869</ele>
        <time>2017-06-07T16:13:33Z</time>
      </trkpt>
      <trkpt lat="50.33231" lon="5.22198">
        <ele>320.74036531688</ele>
        <time>2017-06-07T16:13:37Z</time>
      </trkpt>
      <trkpt lat="50.33223" lon="5.2216">
        <ele>315.5769091704</ele>
        <time>2017-06-07T16:13:41Z</time>
      </trkpt>
      <trkpt lat="50.33213" lon="5.22118">
        <ele>308.93635801514</ele>
        <time>2017-06-07T16:13:45Z</time>
      </trkpt>
      <trkpt lat="50.332" lon="5.22073">
        <ele>306.25748980172</ele>
        <time>2017-06-07T16:13:50Z</time>
      </trkpt>
      <trkpt lat="50.33186" lon="5.2203">
        <ele>307.24281570138</ele>
        <time>2017-06-07T16:13:55Z</time>
      </trkpt>
      <trkpt lat="50.33174" lon="5.21994">
        <ele>306.73943676351</ele>
        <time>2017-06-07T16:13:59Z</time>
      </trkpt>
      <trkpt lat="50.33164" lon="5.21954">
        <ele>304.15050929009</ele>
        <time>2017-06-07T16:14:03Z</time>
      </trkpt>
      <trkpt lat="50.33149" lon="5.21912">
        <ele>302.37084585736</ele>
        <time>2017-06-07T16:14:08Z</time>
      </trkpt>
      <trkpt lat="50.33137" lon="5.21869">
        <ele>302.07867283049</ele>
        <time>2017-06-07T16:14:13Z</time>
      </trkpt>
      <trkpt lat="50.33127" lon="5.21833">
        <ele>303.81226832649</ele>
        <time>2017-06-07T16:14:17Z</time>
      </trkpt>
      <trkpt lat="50.33114" lon="5.218">
        <ele>306.84991480978</ele>
        <time>2017-06-07T16:14:21Z</time>
      </trkpt>
      <trkpt lat="50.33098" lon="5.21771">
        <ele>316.11984671346</ele>
        <time>2017-06-07T16:14:26Z</time>
      </trkpt>
      <trkpt lat="50.33079" lon="5.21742">
        <ele>320.75918827214</ele>
        <time>2017-06-07T16:14:31Z</time>
      </trkpt>
      <trkpt lat="50.33063" lon="5.21721">
        <ele>322.23346181041</ele>
        <time>2017-06-07T16:14:35Z</time>
      </trkpt>
      <trkpt lat="50.33048" lon="5.21696">
        <ele>320.48054569772</ele>
        <time>2017-06-07T16:14:39Z</time>
      </trkpt>
      <trkpt lat="50.33033" lon="5.21668">
        <ele>317.23752265487</ele>
        <time>2017-06-07T16:14:43Z</time>
      </trkpt>
      <trkpt lat="50.33017" lon="5.21634">
        <ele>315.38694184984</ele>
        <time>2017-06-07T16:14:47Z</time>
      </trkpt>
      <trkpt lat="50.33" lon="5.21604">
        <ele>315.93362363208</ele>
        <time>2017-06-07T16:14:51Z</time>
      </trkpt>
      <trkpt lat="50.32981" lon="5.21566">
        <ele>321.09776797526</ele>
        <time>2017-06-07T16:14:56Z</time>
      </trkpt>
      <trkpt lat="50.32964" lon="5.21535">
        <ele>322.66439051489</ele>
        <time>2017-06-07T16:15:00Z</time>
      </trkpt>
      <trkpt lat="50.32941" lon="5.21497">
        <ele>322.87299619827</ele>
        <time>2017-06-07T16:15:05Z</time>
      </trkpt>
      <trkpt lat="50.32921" lon="5.21466">
        <ele>322.65490808539</ele>
        <time>2017-06-07T16:15:09Z</time>
      </trkpt>
      <trkpt lat="50.32903" lon="5.21437">
        <ele>321.91761049111</ele>
        <time>2017-06-07T16:15:13Z</time>
      </trkpt>
      <trkpt lat="50.32879" lon="5.21401">
        <ele>321.41910529127</ele>
        <time>2017-06-07T16:15:18Z</time>
      </trkpt>
      <trkpt lat="50.32861" lon="5.21374">
        <ele>321.45626060221</ele>
        <time>2017-06-07T16:15:22Z</time>
      </trkpt>
      <trkpt lat="50.32838" lon="5.21339">
        <ele>320.94657694696</ele>
        <time>2017-06-07T16:15:27Z</time>
      </trkpt>
      <trkpt lat="50.3282" lon="5.21311">
        <ele>319.40826260445</ele>
        <time>2017-06-07T16:15:31Z</time>
      </trkpt>
      <trkpt lat="50.32803" lon="5.21284">
        <ele>317.77897773067</ele>
        <time>2017-06-07T16:15:35Z</time>
      </trkpt>
      <trkpt lat="50.32781" lon="5.21248">
        <ele>316.87630248997</ele>
        <time>2017-06-07T16:15:40Z</time>
      </trkpt>
      <trkpt lat="50.32764" lon="5.2122">
        <ele>316.1434494734</ele>
        <time>2017-06-07T16:15:44Z</time>
      </trkpt>
      <trkpt lat="50.32747" lon="5.21192">
        <ele>316.80330084844</ele>
        <time>2017-06-07T16:15:48Z</time>
      </trkpt>
      <trkpt lat="50.32728" lon="5.21165">
        <ele>316.43493951599</ele>
        <time>2017-06-07T16:15:52Z</time>
      </trkpt>
      <trkpt lat="50.32705" lon="5.21131">
        <ele>316.96560010767</ele>
        <time>2017-06-07T16:15:57Z</time>
      </trkpt>
      <trkpt lat="50.32687" lon="5.21106">
        <ele>317.68477697429</ele>
        <time>2017-06-07T16:16:01Z</time>
      </trkpt>
      <trkpt lat="50.32666" lon="5.21075">
        <ele>318.64710146988</ele>
        <time>2017-06-07T16:16:06Z</time>
      </trkpt>
      <trkpt lat="50.3265" lon="5.21049">
        <ele>318.56194628512</ele>
        <time>2017-06-07T16:16:10Z</time>
      </trkpt>
      <trkpt lat="50.32628" lon="5.21017">
        <ele>318.20227049393</ele>
        <time>2017-06-07T16:16:15Z</time>
      </trkpt>
      <trkpt lat="50.32605" lon="5.20982">
        <ele>318.25045403483</ele>
        <time>2017-06-07T16:16:20Z</time>
      </trkpt>
      <trkpt lat="50.32588" lon="5.20954">
        <ele>317.93844046448</ele>
        <time>2017-06-07T16:16:24Z</time>
      </trkpt>
      <trkpt lat="50.32572" lon="5.20928">
        <ele>316.86042613642</ele>
        <time>2017-06-07T16:16:28Z</time>
      </trkpt>
      <trkpt lat="50.32554" lon="5.20899">
        <ele>314.09413300892</ele>
        <time>2017-06-07T16:16:33Z</time>
      </trkpt>
      <trkpt lat="50.32538" lon="5.20871">
        <ele>312.85914597562</ele>
        <time>2017-06-07T16:16:37Z</time>
      </trkpt>
      <trkpt lat="50.3252" lon="5.20847">
        <ele>311.88009674043</ele>
        <time>2017-06-07T16:16:41Z</time>
      </trkpt>
      <trkpt lat="50.32508" lon="5.2082">
        <ele>311.4422499931</ele>
        <time>2017-06-07T16:16:46Z</time>
      </trkpt>
      <trkpt lat="50.32489" lon="5.20785">
        <ele>309.77102454273</ele>
        <time>2017-06-07T16:16:50Z</time>
      </trkpt>
      <trkpt lat="50.32474" lon="5.20756">
        <ele>307.96415513302</ele>
        <time>2017-06-07T16:16:54Z</time>
      </trkpt>
      <trkpt lat="50.32456" lon="5.20714">
        <ele>303.72580419936</ele>
        <time>2017-06-07T16:16:59Z</time>
      </trkpt>
      <trkpt lat="50.32443" lon="5.20689">
        <ele>300.53869008088</ele>
        <time>2017-06-07T16:17:03Z</time>
      </trkpt>
      <trkpt lat="50.32424" lon="5.20654">
        <ele>294.16705752686</ele>
        <time>2017-06-07T16:17:07Z</time>
      </trkpt>
      <trkpt lat="50.32405" lon="5.20615">
        <ele>288.39318447287</ele>
        <time>2017-06-07T16:17:11Z</time>
      </trkpt>
      <trkpt lat="50.32387" lon="5.20584">
        <ele>289.32858336697</ele>
        <time>2017-06-07T16:17:15Z</time>
      </trkpt>
      <trkpt lat="50.32373" lon="5.20564">
        <ele>293.037429735</ele>
        <time>2017-06-07T16:17:19Z</time>
      </trkpt>
      <trkpt lat="50.32358" lon="5.2054">
        <ele>299.05785200719</ele>
        <time>2017-06-07T16:17:23Z</time>
      </trkpt>
      <trkpt lat="50.32336" lon="5.20505">
        <ele>299.68116066571</ele>
        <time>2017-06-07T16:17:28Z</time>
      </trkpt>
      <trkpt lat="50.32318" lon="5.20476">
        <ele>303.01576227811</ele>
        <time>2017-06-07T16:17:32Z</time>
      </trkpt>
      <trkpt lat="50.32297" lon="5.20437">
        <ele>306.40653844701</ele>
        <time>2017-06-07T16:17:37Z</time>
      </trkpt>
      <trkpt lat="50.32278" lon="5.20397">
        <ele>302.90717168343</ele>
        <time>2017-06-07T16:17:42Z</time>
      </trkpt>
      <trkpt lat="50.32261" lon="5.20366">
        <ele>301.56097515146</ele>
        <time>2017-06-07T16:17:46Z</time>
      </trkpt>
      <trkpt lat="50.32242" lon="5.20325">
        <ele>302.14581500606</ele>
        <time>2017-06-07T16:17:51Z</time>
      </trkpt>
      <trkpt lat="50.32223" lon="5.20284">
        <ele>299.86381303668</ele>
        <time>2017-06-07T16:17:55Z</time>
      </trkpt>
      <trkpt lat="50.32205" lon="5.20248">
        <ele>296.98097482185</ele>
        <time>2017-06-07T16:17:59Z</time>
      </trkpt>
      <trkpt lat="50.32188" lon="5.20215">
        <ele>298.15997567426</ele>
        <time>2017-06-07T16:18:03Z</time>
      </trkpt>
      <trkpt lat="50.32168" lon="5.20177">
        <ele>298.74679532907</ele>
        <time>2017-06-07T16:18:08Z</time>
      </trkpt>
      <trkpt lat="50.32146" lon="5.20138">
        <ele>296.04715304484</ele>
        <time>2017-06-07T16:18:13Z</time>
      </trkpt>
      <trkpt lat="50.32131" lon="5.20108">
        <ele>294.07816026703</ele>
        <time>2017-06-07T16:18:17Z</time>
      </trkpt>
      <trkpt lat="50.32112" lon="5.20075">
        <ele>292.67904728839</ele>
        <time>2017-06-07T16:18:22Z</time>
      </trkpt>
      <trkpt lat="50.32098" lon="5.20049">
        <ele>292.68978484026</ele>
        <time>2017-06-07T16:18:26Z</time>
      </trkpt>
      <trkpt lat="50.32082" lon="5.20021">
        <ele>292.66013689185</ele>
        <time>2017-06-07T16:18:30Z</time>
      </trkpt>
      <trkpt lat="50.32064" lon="5.19988">
        <ele>293.17380124406</ele>
        <time>2017-06-07T16:18:34Z</time>
      </trkpt>
      <trkpt lat="50.32041" lon="5.19948">
        <ele>296.38699174097</ele>
        <time>2017-06-07T16:18:39Z</time>
      </trkpt>
      <trkpt lat="50.32024" lon="5.1992">
        <ele>297.88067401556</ele>
        <time>2017-06-07T16:18:43Z</time>
      </trkpt>
      <trkpt lat="50.31999" lon="5.19875">
        <ele>299.47625901555</ele>
        <time>2017-06-07T16:18:48Z</time>
      </trkpt>
      <trkpt lat="50.31981" lon="5.19837">
        <ele>296.49276364641</ele>
        <time>2017-06-07T16:18:52Z</time>
      </trkpt>
      <trkpt lat="50.31961" lon="5.19785">
        <ele>290.91666911069</ele>
        <time>2017-06-07T16:18:57Z</time>
      </trkpt>
      <trkpt lat="50.31946" lon="5.19739">
        <ele>287.45331046367</ele>
        <time>2017-06-07T16:19:01Z</time>
      </trkpt>
      <trkpt lat="50.31938" lon="5.19679">
        <ele>285.52942283453</ele>
        <time>2017-06-07T16:19:06Z</time>
      </trkpt>
      <trkpt lat="50.31938" lon="5.19616">
        <ele>284.91567608898</ele>
        <time>2017-06-07T16:19:11Z</time>
      </trkpt>
      <trkpt lat="50.31926" lon="5.19554">
        <ele>281.31793178867</ele>
        <time>2017-06-07T16:19:16Z</time>
      </trkpt>
      <trkpt lat="50.31911" lon="5.19513">
        <ele>280.66851962031</ele>
        <time>2017-06-07T16:19:20Z</time>
      </trkpt>
      <trkpt lat="50.31888" lon="5.19469">
        <ele>279.81316922297</ele>
        <time>2017-06-07T16:19:25Z</time>
      </trkpt>
      <trkpt lat="50.31868" lon="5.19428">
        <ele>280.05439720693</ele>
        <time>2017-06-07T16:19:30Z</time>
      </trkpt>
      <trkpt lat="50.31855" lon="5.19398">
        <ele>277.65426340247</ele>
        <time>2017-06-07T16:19:34Z</time>
      </trkpt>
      <trkpt lat="50.3184" lon="5.19369">
        <ele>273.50426942133</ele>
        <time>2017-06-07T16:19:39Z</time>
      </trkpt>
      <trkpt lat="50.31822" lon="5.19336">
        <ele>272.23480065949</ele>
        <time>2017-06-07T16:19:44Z</time>
      </trkpt>
      <trkpt lat="50.31815" lon="5.19306">
        <ele>273.91038278051</ele>
        <time>2017-06-07T16:19:49Z</time>
      </trkpt>
      <trkpt lat="50.31812" lon="5.19264">
        <ele>281.77632481597</ele>
        <time>2017-06-07T16:19:53Z</time>
      </trkpt>
      <trkpt lat="50.31823" lon="5.19231">
        <ele>283.76589611255</ele>
        <time>2017-06-07T16:19:58Z</time>
      </trkpt>
      <trkpt lat="50.31832" lon="5.19195">
        <ele>276.0973512817</ele>
        <time>2017-06-07T16:20:03Z</time>
      </trkpt>
      <trkpt lat="50.31816" lon="5.19169">
        <ele>271.38934792926</ele>
        <time>2017-06-07T16:20:08Z</time>
      </trkpt>
      <trkpt lat="50.31802" lon="5.19147">
        <ele>268.66392899059</ele>
        <time>2017-06-07T16:20:12Z</time>
      </trkpt>
      <trkpt lat="50.31783" lon="5.19112">
        <ele>265.69277757774</ele>
        <time>2017-06-07T16:20:17Z</time>
      </trkpt>
      <trkpt lat="50.31765" lon="5.19079">
        <ele>265.21342947693</ele>
        <time>2017-06-07T16:20:22Z</time>
      </trkpt>
      <trkpt lat="50.31751" lon="5.19052">
        <ele>264.70115140908</ele>
        <time>2017-06-07T16:20:26Z</time>
      </trkpt>
      <trkpt lat="50.31734" lon="5.19034">
        <ele>265.67150980978</ele>
        <time>2017-06-07T16:20:30Z</time>
      </trkpt>
      <trkpt lat="50.31716" lon="5.19018">
        <ele>268.13425499414</ele>
        <time>2017-06-07T16:20:34Z</time>
      </trkpt>
      <trkpt lat="50.31698" lon="5.19004">
        <ele>271.10023752088</ele>
        <time>2017-06-07T16:20:38Z</time>
      </trkpt>
      <trkpt lat="50.31677" lon="5.18994">
        <ele>274.47430107665</ele>
        <time>2017-06-07T16:20:43Z</time>
      </trkpt>
      <trkpt lat="50.31659" lon="5.18989">
        <ele>276.10195947155</ele>
        <time>2017-06-07T16:20:47Z</time>
      </trkpt>
      <trkpt lat="50.3164" lon="5.18984">
        <ele>281.4141249737</ele>
        <time>2017-06-07T16:20:51Z</time>
      </trkpt>
      <trkpt lat="50.31621" lon="5.18975">
        <ele>284.55067540261</ele>
        <time>2017-06-07T16:20:56Z</time>
      </trkpt>
      <trkpt lat="50.31604" lon="5.18965">
        <ele>286.62196211732</ele>
        <time>2017-06-07T16:21:00Z</time>
      </trkpt>
      <trkpt lat="50.3159" lon="5.18951">
        <ele>284.36278219477</ele>
        <time>2017-06-07T16:21:04Z</time>
      </trkpt>
      <trkpt lat="50.31573" lon="5.18925">
        <ele>278.74877691783</ele>
        <time>2017-06-07T16:21:09Z</time>
      </trkpt>
      <trkpt lat="50.31562" lon="5.18903">
        <ele>276.41856821746</ele>
        <time>2017-06-07T16:21:13Z</time>
      </trkpt>
      <trkpt lat="50.31547" lon="5.18876">
        <ele>277.82922181593</ele>
        <time>2017-06-07T16:21:18Z</time>
      </trkpt>
      <trkpt lat="50.31535" lon="5.18852">
        <ele>279.03680777411</ele>
        <time>2017-06-07T16:21:23Z</time>
      </trkpt>
      <trkpt lat="50.31519" lon="5.18827">
        <ele>279.81923085574</ele>
        <time>2017-06-07T16:21:27Z</time>
      </trkpt>
      <trkpt lat="50.31506" lon="5.18805">
        <ele>280.61336283576</ele>
        <time>2017-06-07T16:21:31Z</time>
      </trkpt>
      <trkpt lat="50.31492" lon="5.18778">
        <ele>282.20072767764</ele>
        <time>2017-06-07T16:21:36Z</time>
      </trkpt>
      <trkpt lat="50.31478" lon="5.18747">
        <ele>283.36552085606</ele>
        <time>2017-06-07T16:21:41Z</time>
      </trkpt>
      <trkpt lat="50.31466" lon="5.18724">
        <ele>282.59690335342</ele>
        <time>2017-06-07T16:21:45Z</time>
      </trkpt>
      <trkpt lat="50.31451" lon="5.18693">
        <ele>283.11065551525</ele>
        <time>2017-06-07T16:21:50Z</time>
      </trkpt>
      <trkpt lat="50.3144" lon="5.18668">
        <ele>285.516122331</ele>
        <time>2017-06-07T16:21:54Z</time>
      </trkpt>
      <trkpt lat="50.31427" lon="5.18635">
        <ele>287.39806305912</ele>
        <time>2017-06-07T16:21:59Z</time>
      </trkpt>
      <trkpt lat="50.31417" lon="5.1861">
        <ele>288.13190546933</ele>
        <time>2017-06-07T16:22:03Z</time>
      </trkpt>
      <trkpt lat="50.31405" lon="5.18585">
        <ele>289.91792214635</ele>
        <time>2017-06-07T16:22:07Z</time>
      </trkpt>
      <trkpt lat="50.31392" lon="5.18557">
        <ele>290.70470627426</ele>
        <time>2017-06-07T16:22:11Z</time>
      </trkpt>
      <trkpt lat="50.31381" lon="5.18529">
        <ele>291.41654273015</ele>
        <time>2017-06-07T16:22:15Z</time>
      </trkpt>
      <trkpt lat="50.31369" lon="5.18501">
        <ele>291.03242791789</ele>
        <time>2017-06-07T16:22:19Z</time>
      </trkpt>
      <trkpt lat="50.31357" lon="5.18475">
        <ele>291.02006719434</ele>
        <time>2017-06-07T16:22:23Z</time>
      </trkpt>
      <trkpt lat="50.31342" lon="5.1844">
        <ele>289.73316054256</ele>
        <time>2017-06-07T16:22:28Z</time>
      </trkpt>
      <trkpt lat="50.3133" lon="5.18413">
        <ele>289.41126815673</ele>
        <time>2017-06-07T16:22:32Z</time>
      </trkpt>
      <trkpt lat="50.31314" lon="5.18381">
        <ele>289.9798585382</ele>
        <time>2017-06-07T16:22:37Z</time>
      </trkpt>
      <trkpt lat="50.313" lon="5.18348">
        <ele>292.38333394381</ele>
        <time>2017-06-07T16:22:42Z</time>
      </trkpt>
      <trkpt lat="50.31288" lon="5.18321">
        <ele>294.72705948917</ele>
        <time>2017-06-07T16:22:47Z</time>
      </trkpt>
      <trkpt lat="50.31272" lon="5.1829">
        <ele>297.56731210709</ele>
        <time>2017-06-07T16:22:51Z</time>
      </trkpt>
      <trkpt lat="50.3126" lon="5.18263">
        <ele>298.8639858933</ele>
        <time>2017-06-07T16:22:55Z</time>
      </trkpt>
      <trkpt lat="50.31249" lon="5.18239">
        <ele>300.27514602921</ele>
        <time>2017-06-07T16:22:59Z</time>
      </trkpt>
      <trkpt lat="50.31238" lon="5.18216">
        <ele>301.79012030976</ele>
        <time>2017-06-07T16:23:03Z</time>
      </trkpt>
      <trkpt lat="50.31223" lon="5.18182">
        <ele>300.99977525081</ele>
        <time>2017-06-07T16:23:08Z</time>
      </trkpt>
      <trkpt lat="50.31208" lon="5.18144">
        <ele>296.30973769519</ele>
        <time>2017-06-07T16:23:13Z</time>
      </trkpt>
      <trkpt lat="50.31196" lon="5.18117">
        <ele>294.44268975688</ele>
        <time>2017-06-07T16:23:17Z</time>
      </trkpt>
      <trkpt lat="50.31183" lon="5.18085">
        <ele>295.34570271833</ele>
        <time>2017-06-07T16:23:22Z</time>
      </trkpt>
      <trkpt lat="50.31172" lon="5.1806">
        <ele>297.17408470223</ele>
        <time>2017-06-07T16:23:26Z</time>
      </trkpt>
      <trkpt lat="50.31159" lon="5.18028">
        <ele>297.27604843549</ele>
        <time>2017-06-07T16:23:30Z</time>
      </trkpt>
      <trkpt lat="50.31147" lon="5.18002">
        <ele>298.11791033764</ele>
        <time>2017-06-07T16:23:35Z</time>
      </trkpt>
      <trkpt lat="50.31133" lon="5.17968">
        <ele>299.65225885709</ele>
        <time>2017-06-07T16:23:39Z</time>
      </trkpt>
      <trkpt lat="50.31116" lon="5.17933">
        <ele>299.48567319226</ele>
        <time>2017-06-07T16:23:44Z</time>
      </trkpt>
      <trkpt lat="50.31101" lon="5.17899">
        <ele>299.39980003158</ele>
        <time>2017-06-07T16:23:49Z</time>
      </trkpt>
      <trkpt lat="50.31089" lon="5.1787">
        <ele>300.41640644383</ele>
        <time>2017-06-07T16:23:53Z</time>
      </trkpt>
      <trkpt lat="50.31073" lon="5.17837">
        <ele>301.78813629634</ele>
        <time>2017-06-07T16:23:58Z</time>
      </trkpt>
      <trkpt lat="50.31061" lon="5.17808">
        <ele>301.00968999519</ele>
        <time>2017-06-07T16:24:02Z</time>
      </trkpt>
      <trkpt lat="50.31048" lon="5.17781">
        <ele>299.80871915301</ele>
        <time>2017-06-07T16:24:07Z</time>
      </trkpt>
      <trkpt lat="50.31034" lon="5.17745">
        <ele>300.42643447585</ele>
        <time>2017-06-07T16:24:11Z</time>
      </trkpt>
      <trkpt lat="50.31021" lon="5.17713">
        <ele>299.48760638774</ele>
        <time>2017-06-07T16:24:16Z</time>
      </trkpt>
      <trkpt lat="50.31012" lon="5.17691">
        <ele>298.59219293877</ele>
        <time>2017-06-07T16:24:20Z</time>
      </trkpt>
      <trkpt lat="50.30999" lon="5.17657">
        <ele>298.77407751059</ele>
        <time>2017-06-07T16:24:25Z</time>
      </trkpt>
      <trkpt lat="50.30994" lon="5.17628">
        <ele>303.08948846475</ele>
        <time>2017-06-07T16:24:29Z</time>
      </trkpt>
      <trkpt lat="50.30993" lon="5.17578">
        <ele>306.76653786999</ele>
        <time>2017-06-07T16:24:34Z</time>
      </trkpt>
      <trkpt lat="50.30994" lon="5.17533">
        <ele>308.40735005713</ele>
        <time>2017-06-07T16:24:39Z</time>
      </trkpt>
      <trkpt lat="50.30995" lon="5.17481">
        <ele>307.30853435513</ele>
        <time>2017-06-07T16:24:44Z</time>
      </trkpt>
      <trkpt lat="50.30995" lon="5.1744">
        <ele>305.76954352756</ele>
        <time>2017-06-07T16:24:48Z</time>
      </trkpt>
      <trkpt lat="50.30997" lon="5.17398">
        <ele>302.95024383776</ele>
        <time>2017-06-07T16:24:52Z</time>
      </trkpt>
      <trkpt lat="50.30999" lon="5.17349">
        <ele>301.93157014185</ele>
        <time>2017-06-07T16:24:57Z</time>
      </trkpt>
      <trkpt lat="50.31002" lon="5.17297">
        <ele>303.38636782472</ele>
        <time>2017-06-07T16:25:02Z</time>
      </trkpt>
      <trkpt lat="50.31001" lon="5.17256">
        <ele>304.49754076862</ele>
        <time>2017-06-07T16:25:06Z</time>
      </trkpt>
      <trkpt lat="50.31003" lon="5.17184">
        <ele>302.54345257303</ele>
        <time>2017-06-07T16:25:11Z</time>
      </trkpt>
      <trkpt lat="50.31003" lon="5.17121">
        <ele>298.06596286793</ele>
        <time>2017-06-07T16:25:15Z</time>
      </trkpt>
      <trkpt lat="50.31003" lon="5.17049">
        <ele>296.3410033526</ele>
        <time>2017-06-07T16:25:20Z</time>
      </trkpt>
      <trkpt lat="50.31005" lon="5.16988">
        <ele>296.71826360134</ele>
        <time>2017-06-07T16:25:25Z</time>
      </trkpt>
      <trkpt lat="50.31006" lon="5.16948">
        <ele>295.81928201323</ele>
        <time>2017-06-07T16:25:29Z</time>
      </trkpt>
      <trkpt lat="50.31007" lon="5.169">
        <ele>294.55416690113</ele>
        <time>2017-06-07T16:25:34Z</time>
      </trkpt>
      <trkpt lat="50.31008" lon="5.1685">
        <ele>292.77621669314</ele>
        <time>2017-06-07T16:25:39Z</time>
      </trkpt>
      <trkpt lat="50.3101" lon="5.16816">
        <ele>292.15786799015</ele>
        <time>2017-06-07T16:25:43Z</time>
      </trkpt>
      <trkpt lat="50.31012" lon="5.16771">
        <ele>292.47448740984</ele>
        <time>2017-06-07T16:25:48Z</time>
      </trkpt>
      <trkpt lat="50.31014" lon="5.16726">
        <ele>292.92685178152</ele>
        <time>2017-06-07T16:25:53Z</time>
      </trkpt>
      <trkpt lat="50.31015" lon="5.16691">
        <ele>293.03276132838</ele>
        <time>2017-06-07T16:25:57Z</time>
      </trkpt>
      <trkpt lat="50.31017" lon="5.16653">
        <ele>294.70218578396</ele>
        <time>2017-06-07T16:26:01Z</time>
      </trkpt>
      <trkpt lat="50.31019" lon="5.16609">
        <ele>295.98359580744</ele>
        <time>2017-06-07T16:26:06Z</time>
      </trkpt>
      <trkpt lat="50.3102" lon="5.16573">
        <ele>296.18722285136</ele>
        <time>2017-06-07T16:26:10Z</time>
      </trkpt>
      <trkpt lat="50.31021" lon="5.1654">
        <ele>295.21292356098</ele>
        <time>2017-06-07T16:26:14Z</time>
      </trkpt>
      <trkpt lat="50.31022" lon="5.16509">
        <ele>295.16244569026</ele>
        <time>2017-06-07T16:26:18Z</time>
      </trkpt>
      <trkpt lat="50.31023" lon="5.16478">
        <ele>295.78533271575</ele>
        <time>2017-06-07T16:26:22Z</time>
      </trkpt>
      <trkpt lat="50.31023" lon="5.1644">
        <ele>297.50803885582</ele>
        <time>2017-06-07T16:26:27Z</time>
      </trkpt>
      <trkpt lat="50.31024" lon="5.16408">
        <ele>297.77838001651</ele>
        <time>2017-06-07T16:26:32Z</time>
      </trkpt>
      <trkpt lat="50.31018" lon="5.16383">
        <ele>296.97202068692</ele>
        <time>2017-06-07T16:26:36Z</time>
      </trkpt>
      <trkpt lat="50.31011" lon="5.16354">
        <ele>297.15693482848</ele>
        <time>2017-06-07T16:26:40Z</time>
      </trkpt>
      <trkpt lat="50.31" lon="5.16314">
        <ele>296.94732817709</ele>
        <time>2017-06-07T16:26:45Z</time>
      </trkpt>
      <trkpt lat="50.30992" lon="5.16286">
        <ele>299.0399050908</ele>
        <time>2017-06-07T16:26:49Z</time>
      </trkpt>
      <trkpt lat="50.30984" lon="5.16257">
        <ele>300.57938520139</ele>
        <time>2017-06-07T16:26:53Z</time>
      </trkpt>
      <trkpt lat="50.30972" lon="5.16216">
        <ele>299.2718099054</ele>
        <time>2017-06-07T16:26:58Z</time>
      </trkpt>
      <trkpt lat="50.30961" lon="5.16177">
        <ele>296.64535080746</ele>
        <time>2017-06-07T16:27:03Z</time>
      </trkpt>
      <trkpt lat="50.30949" lon="5.16137">
        <ele>294.68146593992</ele>
        <time>2017-06-07T16:27:08Z</time>
      </trkpt>
      <trkpt lat="50.3094" lon="5.16106">
        <ele>293.89249650984</ele>
        <time>2017-06-07T16:27:12Z</time>
      </trkpt>
      <trkpt lat="50.3093" lon="5.16067">
        <ele>295.04076723074</ele>
        <time>2017-06-07T16:27:17Z</time>
      </trkpt>
      <trkpt lat="50.30925" lon="5.16034">
        <ele>296.57136818209</ele>
        <time>2017-06-07T16:27:21Z</time>
      </trkpt>
      <trkpt lat="50.30926" lon="5.16001">
        <ele>302.35292430313</ele>
        <time>2017-06-07T16:27:25Z</time>
      </trkpt>
      <trkpt lat="50.30928" lon="5.1597">
        <ele>306.11452504556</ele>
        <time>2017-06-07T16:27:29Z</time>
      </trkpt>
      <trkpt lat="50.30929" lon="5.15928">
        <ele>307.50332832598</ele>
        <time>2017-06-07T16:27:34Z</time>
      </trkpt>
      <trkpt lat="50.30932" lon="5.15885">
        <ele>305.83919632976</ele>
        <time>2017-06-07T16:27:39Z</time>
      </trkpt>
      <trkpt lat="50.30933" lon="5.15852">
        <ele>303.81048001265</ele>
        <time>2017-06-07T16:27:43Z</time>
      </trkpt>
      <trkpt lat="50.30935" lon="5.15819">
        <ele>303.81410904475</ele>
        <time>2017-06-07T16:27:47Z</time>
      </trkpt>
      <trkpt lat="50.30936" lon="5.15775">
        <ele>304.8590545092</ele>
        <time>2017-06-07T16:27:52Z</time>
      </trkpt>
      <trkpt lat="50.30937" lon="5.15733">
        <ele>304.46667418444</ele>
        <time>2017-06-07T16:27:57Z</time>
      </trkpt>
      <trkpt lat="50.30939" lon="5.15688">
        <ele>299.94447619917</ele>
        <time>2017-06-07T16:28:02Z</time>
      </trkpt>
      <trkpt lat="50.3094" lon="5.15655">
        <ele>297.33670742253</ele>
        <time>2017-06-07T16:28:06Z</time>
      </trkpt>
      <trkpt lat="50.30944" lon="5.15633">
        <ele>297.67930100115</ele>
        <time>2017-06-07T16:28:10Z</time>
      </trkpt>
      <trkpt lat="50.30965" lon="5.15635">
        <ele>303.59564120704</ele>
        <time>2017-06-07T16:28:15Z</time>
      </trkpt>
      <trkpt lat="50.30986" lon="5.15636">
        <ele>304.50971590626</ele>
        <time>2017-06-07T16:28:19Z</time>
      </trkpt>
      <trkpt lat="50.31018" lon="5.15634">
        <ele>302.25172061787</ele>
        <time>2017-06-07T16:28:24Z</time>
      </trkpt>
      <trkpt lat="50.31054" lon="5.15636">
        <ele>301.59497245019</ele>
        <time>2017-06-07T16:28:29Z</time>
      </trkpt>
      <trkpt lat="50.31087" lon="5.15631">
        <ele>305.33392776709</ele>
        <time>2017-06-07T16:28:34Z</time>
      </trkpt>
      <trkpt lat="50.31111" lon="5.15613">
        <ele>312.33643493882</ele>
        <time>2017-06-07T16:28:38Z</time>
      </trkpt>
      <trkpt lat="50.31131" lon="5.15601">
        <ele>311.69797904674</ele>
        <time>2017-06-07T16:28:42Z</time>
      </trkpt>
      <trkpt lat="50.31154" lon="5.15585">
        <ele>310.33252495669</ele>
        <time>2017-06-07T16:28:47Z</time>
      </trkpt>
      <trkpt lat="50.31176" lon="5.15571">
        <ele>310.03153491107</ele>
        <time>2017-06-07T16:28:52Z</time>
      </trkpt>
      <trkpt lat="50.3119" lon="5.15561">
        <ele>309.80875379004</ele>
        <time>2017-06-07T16:28:56Z</time>
      </trkpt>
      <trkpt lat="50.31205" lon="5.15548">
        <ele>309.95991540316</ele>
        <time>2017-06-07T16:29:00Z</time>
      </trkpt>
      <trkpt lat="50.31222" lon="5.15538">
        <ele>306.42528390208</ele>
        <time>2017-06-07T16:29:04Z</time>
      </trkpt>
      <trkpt lat="50.31244" lon="5.15518">
        <ele>299.23986570413</ele>
        <time>2017-06-07T16:29:09Z</time>
      </trkpt>
      <trkpt lat="50.31269" lon="5.15494">
        <ele>296.74337120372</ele>
        <time>2017-06-07T16:29:13Z</time>
      </trkpt>
      <trkpt lat="50.31298" lon="5.15462">
        <ele>293.19256846943</ele>
        <time>2017-06-07T16:29:18Z</time>
      </trkpt>
      <trkpt lat="50.31323" lon="5.15445">
        <ele>290.92788923869</ele>
        <time>2017-06-07T16:29:22Z</time>
      </trkpt>
      <trkpt lat="50.31349" lon="5.15428">
        <ele>289.80568428095</ele>
        <time>2017-06-07T16:29:27Z</time>
      </trkpt>
      <trkpt lat="50.31376" lon="5.15409">
        <ele>287.91138997221</ele>
        <time>2017-06-07T16:29:31Z</time>
      </trkpt>
      <trkpt lat="50.31418" lon="5.1539">
        <ele>283.87346109223</ele>
        <time>2017-06-07T16:29:36Z</time>
      </trkpt>
      <trkpt lat="50.31454" lon="5.15367">
        <ele>285.21393324745</ele>
        <time>2017-06-07T16:29:40Z</time>
      </trkpt>
      <trkpt lat="50.31487" lon="5.15346">
        <ele>286.28687402144</ele>
        <time>2017-06-07T16:29:44Z</time>
      </trkpt>
      <trkpt lat="50.31532" lon="5.15327">
        <ele>285.00097999851</ele>
        <time>2017-06-07T16:29:49Z</time>
      </trkpt>
      <trkpt lat="50.31563" lon="5.15304">
        <ele>279.36901364626</ele>
        <time>2017-06-07T16:29:53Z</time>
      </trkpt>
      <trkpt lat="50.31593" lon="5.15281">
        <ele>275.07589050663</ele>
        <time>2017-06-07T16:29:57Z</time>
      </trkpt>
      <trkpt lat="50.31633" lon="5.15268">
        <ele>274.90675257485</ele>
        <time>2017-06-07T16:30:02Z</time>
      </trkpt>
      <trkpt lat="50.31654" lon="5.15254">
        <ele>274.2120398629</ele>
        <time>2017-06-07T16:30:06Z</time>
      </trkpt>
      <trkpt lat="50.31653" lon="5.15229">
        <ele>274.83959327479</ele>
        <time>2017-06-07T16:30:10Z</time>
      </trkpt>
      <trkpt lat="50.31638" lon="5.15211">
        <ele>276.89194278538</ele>
        <time>2017-06-07T16:30:14Z</time>
      </trkpt>
      <trkpt lat="50.31625" lon="5.1519">
        <ele>278.45297473416</ele>
        <time>2017-06-07T16:30:18Z</time>
      </trkpt>
      <trkpt lat="50.3161" lon="5.15163">
        <ele>275.74594128764</ele>
        <time>2017-06-07T16:30:22Z</time>
      </trkpt>
      <trkpt lat="50.31591" lon="5.15134">
        <ele>274.47379677609</ele>
        <time>2017-06-07T16:30:27Z</time>
      </trkpt>
      <trkpt lat="50.31573" lon="5.1512">
        <ele>279.77958034751</ele>
        <time>2017-06-07T16:30:31Z</time>
      </trkpt>
      <trkpt lat="50.31557" lon="5.15094">
        <ele>286.22840314796</ele>
        <time>2017-06-07T16:30:36Z</time>
      </trkpt>
      <trkpt lat="50.31536" lon="5.15066">
        <ele>290.99233667602</ele>
        <time>2017-06-07T16:30:40Z</time>
      </trkpt>
      <trkpt lat="50.31514" lon="5.15031">
        <ele>293.62108159885</ele>
        <time>2017-06-07T16:30:45Z</time>
      </trkpt>
      <trkpt lat="50.31499" lon="5.15001">
        <ele>294.12931918177</ele>
        <time>2017-06-07T16:30:49Z</time>
      </trkpt>
      <trkpt lat="50.31482" lon="5.14967">
        <ele>293.47361305727</ele>
        <time>2017-06-07T16:30:54Z</time>
      </trkpt>
      <trkpt lat="50.31469" lon="5.14943">
        <ele>292.78148155962</ele>
        <time>2017-06-07T16:30:58Z</time>
      </trkpt>
      <trkpt lat="50.31455" lon="5.14918">
        <ele>291.34892428321</ele>
        <time>2017-06-07T16:31:02Z</time>
      </trkpt>
      <trkpt lat="50.31442" lon="5.1489">
        <ele>289.72631158061</ele>
        <time>2017-06-07T16:31:06Z</time>
      </trkpt>
      <trkpt lat="50.31428" lon="5.14861">
        <ele>288.84535729457</ele>
        <time>2017-06-07T16:31:10Z</time>
      </trkpt>
      <trkpt lat="50.31415" lon="5.14833">
        <ele>287.95351224595</ele>
        <time>2017-06-07T16:31:14Z</time>
      </trkpt>
      <trkpt lat="50.31397" lon="5.14804">
        <ele>288.43858250442</ele>
        <time>2017-06-07T16:31:19Z</time>
      </trkpt>
      <trkpt lat="50.31382" lon="5.14784">
        <ele>290.53513880405</ele>
        <time>2017-06-07T16:31:23Z</time>
      </trkpt>
      <trkpt lat="50.31364" lon="5.14763">
        <ele>292.51892442198</ele>
        <time>2017-06-07T16:31:27Z</time>
      </trkpt>
      <trkpt lat="50.31347" lon="5.14742">
        <ele>294.34900855501</ele>
        <time>2017-06-07T16:31:31Z</time>
      </trkpt>
      <trkpt lat="50.31333" lon="5.14715">
        <ele>296.60290777486</ele>
        <time>2017-06-07T16:31:36Z</time>
      </trkpt>
      <trkpt lat="50.31324" lon="5.14683">
        <ele>298.77931640584</ele>
        <time>2017-06-07T16:31:40Z</time>
      </trkpt>
      <trkpt lat="50.31314" lon="5.14649">
        <ele>300.05983497587</ele>
        <time>2017-06-07T16:31:44Z</time>
      </trkpt>
      <trkpt lat="50.31301" lon="5.14608">
        <ele>301.02254120899</ele>
        <time>2017-06-07T16:31:49Z</time>
      </trkpt>
      <trkpt lat="50.31289" lon="5.1457">
        <ele>303.18976675061</ele>
        <time>2017-06-07T16:31:54Z</time>
      </trkpt>
      <trkpt lat="50.31275" lon="5.1453">
        <ele>303.37624521899</ele>
        <time>2017-06-07T16:31:59Z</time>
      </trkpt>
      <trkpt lat="50.31263" lon="5.14495">
        <ele>302.88457082463</ele>
        <time>2017-06-07T16:32:03Z</time>
      </trkpt>
      <trkpt lat="50.31246" lon="5.14452">
        <ele>300.47233764865</ele>
        <time>2017-06-07T16:32:08Z</time>
      </trkpt>
      <trkpt lat="50.31231" lon="5.14406">
        <ele>296.86524570803</ele>
        <time>2017-06-07T16:32:13Z</time>
      </trkpt>
      <trkpt lat="50.31218" lon="5.14366">
        <ele>295.50687554625</ele>
        <time>2017-06-07T16:32:18Z</time>
      </trkpt>
      <trkpt lat="50.31206" lon="5.14334">
        <ele>294.2338245835</ele>
        <time>2017-06-07T16:32:22Z</time>
      </trkpt>
      <trkpt lat="50.31193" lon="5.14295">
        <ele>294.58109568134</ele>
        <time>2017-06-07T16:32:27Z</time>
      </trkpt>
      <trkpt lat="50.31189" lon="5.1427">
        <ele>294.54897629027</ele>
        <time>2017-06-07T16:32:30Z</time>
      </trkpt>
      <trkpt lat="50.31168" lon="5.14251">
        <ele>295.15800395727</ele>
        <time>2017-06-07T16:32:34Z</time>
      </trkpt>
      <trkpt lat="50.31157" lon="5.14207">
        <ele>289.68287829574</ele>
        <time>2017-06-07T16:32:39Z</time>
      </trkpt>
      <trkpt lat="50.31143" lon="5.14166">
        <ele>289.56455526716</ele>
        <time>2017-06-07T16:32:43Z</time>
      </trkpt>
      <trkpt lat="50.31129" lon="5.14126">
        <ele>289.57542355941</ele>
        <time>2017-06-07T16:32:48Z</time>
      </trkpt>
      <trkpt lat="50.31111" lon="5.14084">
        <ele>290.18213391302</ele>
        <time>2017-06-07T16:32:53Z</time>
      </trkpt>
      <trkpt lat="50.31094" lon="5.14048">
        <ele>291.27895691832</ele>
        <time>2017-06-07T16:32:57Z</time>
      </trkpt>
      <trkpt lat="50.31078" lon="5.14022">
        <ele>291.47704669846</ele>
        <time>2017-06-07T16:33:01Z</time>
      </trkpt>
      <trkpt lat="50.31055" lon="5.1399">
        <ele>291.23547752061</ele>
        <time>2017-06-07T16:33:06Z</time>
      </trkpt>
      <trkpt lat="50.31034" lon="5.13957">
        <ele>290.85426299863</ele>
        <time>2017-06-07T16:33:11Z</time>
      </trkpt>
      <trkpt lat="50.3101" lon="5.13921">
        <ele>287.77063436955</ele>
        <time>2017-06-07T16:33:16Z</time>
      </trkpt>
      <trkpt lat="50.30993" lon="5.13891">
        <ele>286.79979654464</ele>
        <time>2017-06-07T16:33:20Z</time>
      </trkpt>
      <trkpt lat="50.30972" lon="5.13862">
        <ele>284.86960880308</ele>
        <time>2017-06-07T16:33:24Z</time>
      </trkpt>
      <trkpt lat="50.30948" lon="5.13823">
        <ele>279.88390324756</ele>
        <time>2017-06-07T16:33:29Z</time>
      </trkpt>
      <trkpt lat="50.30929" lon="5.13793">
        <ele>279.52771864084</ele>
        <time>2017-06-07T16:33:33Z</time>
      </trkpt>
      <trkpt lat="50.30913" lon="5.13763">
        <ele>280.31999690153</ele>
        <time>2017-06-07T16:33:37Z</time>
      </trkpt>
      <trkpt lat="50.30893" lon="5.13719">
        <ele>282.49568487325</ele>
        <time>2017-06-07T16:33:42Z</time>
      </trkpt>
      <trkpt lat="50.30875" lon="5.13678">
        <ele>283.85514669017</ele>
        <time>2017-06-07T16:33:47Z</time>
      </trkpt>
      <trkpt lat="50.30856" lon="5.13637">
        <ele>284.26345057124</ele>
        <time>2017-06-07T16:33:52Z</time>
      </trkpt>
      <trkpt lat="50.30839" lon="5.13602">
        <ele>283.35734478076</ele>
        <time>2017-06-07T16:33:56Z</time>
      </trkpt>
      <trkpt lat="50.30826" lon="5.13572">
        <ele>282.4794704552</ele>
        <time>2017-06-07T16:34:00Z</time>
      </trkpt>
      <trkpt lat="50.3081" lon="5.13525">
        <ele>281.85096420704</ele>
        <time>2017-06-07T16:34:05Z</time>
      </trkpt>
      <trkpt lat="50.30798" lon="5.13476">
        <ele>282.25776870931</ele>
        <time>2017-06-07T16:34:10Z</time>
      </trkpt>
      <trkpt lat="50.3079" lon="5.13437">
        <ele>281.86818396646</ele>
        <time>2017-06-07T16:34:14Z</time>
      </trkpt>
      <trkpt lat="50.30782" lon="5.13397">
        <ele>281.76340517789</ele>
        <time>2017-06-07T16:34:18Z</time>
      </trkpt>
      <trkpt lat="50.30773" lon="5.13358">
        <ele>282.98581909616</ele>
        <time>2017-06-07T16:34:22Z</time>
      </trkpt>
      <trkpt lat="50.30765" lon="5.1332">
        <ele>283.56637825764</ele>
        <time>2017-06-07T16:34:26Z</time>
      </trkpt>
      <trkpt lat="50.30758" lon="5.13282">
        <ele>283.50963010437</ele>
        <time>2017-06-07T16:34:30Z</time>
      </trkpt>
      <trkpt lat="50.30753" lon="5.13235">
        <ele>282.70434546744</ele>
        <time>2017-06-07T16:34:35Z</time>
      </trkpt>
      <trkpt lat="50.3075" lon="5.13188">
        <ele>281.92988967444</ele>
        <time>2017-06-07T16:34:40Z</time>
      </trkpt>
      <trkpt lat="50.30749" lon="5.13151">
        <ele>281.17038483732</ele>
        <time>2017-06-07T16:34:44Z</time>
      </trkpt>
      <trkpt lat="50.30746" lon="5.13102">
        <ele>279.79411682982</ele>
        <time>2017-06-07T16:34:49Z</time>
      </trkpt>
      <trkpt lat="50.30742" lon="5.13051">
        <ele>278.60936790872</ele>
        <time>2017-06-07T16:34:54Z</time>
      </trkpt>
      <trkpt lat="50.30732" lon="5.13008">
        <ele>277.39907552616</ele>
        <time>2017-06-07T16:34:59Z</time>
      </trkpt>
      <trkpt lat="50.30714" lon="5.12968">
        <ele>275.11167614493</ele>
        <time>2017-06-07T16:35:04Z</time>
      </trkpt>
      <trkpt lat="50.30697" lon="5.12933">
        <ele>274.53667484799</ele>
        <time>2017-06-07T16:35:08Z</time>
      </trkpt>
      <trkpt lat="50.30682" lon="5.12899">
        <ele>274.39825781856</ele>
        <time>2017-06-07T16:35:12Z</time>
      </trkpt>
      <trkpt lat="50.30667" lon="5.12868">
        <ele>275.1171762796</ele>
        <time>2017-06-07T16:35:16Z</time>
      </trkpt>
      <trkpt lat="50.30653" lon="5.12837">
        <ele>275.55671567287</ele>
        <time>2017-06-07T16:35:20Z</time>
      </trkpt>
      <trkpt lat="50.30639" lon="5.12808">
        <ele>275.28518467646</ele>
        <time>2017-06-07T16:35:24Z</time>
      </trkpt>
      <trkpt lat="50.30619" lon="5.12766">
        <ele>275.07348793559</ele>
        <time>2017-06-07T16:35:29Z</time>
      </trkpt>
      <trkpt lat="50.30606" lon="5.12733">
        <ele>275.23212374088</ele>
        <time>2017-06-07T16:35:33Z</time>
      </trkpt>
      <trkpt lat="50.30595" lon="5.12694">
        <ele>275.73212180236</ele>
        <time>2017-06-07T16:35:37Z</time>
      </trkpt>
      <trkpt lat="50.30583" lon="5.12639">
        <ele>274.31249143584</ele>
        <time>2017-06-07T16:35:42Z</time>
      </trkpt>
      <trkpt lat="50.30576" lon="5.12599">
        <ele>270.46994124072</ele>
        <time>2017-06-07T16:35:46Z</time>
      </trkpt>
      <trkpt lat="50.30566" lon="5.12564">
        <ele>270.49807738964</ele>
        <time>2017-06-07T16:35:50Z</time>
      </trkpt>
      <trkpt lat="50.30548" lon="5.12521">
        <ele>270.73878217502</ele>
        <time>2017-06-07T16:35:55Z</time>
      </trkpt>
      <trkpt lat="50.30532" lon="5.1249">
        <ele>269.38763624335</ele>
        <time>2017-06-07T16:35:59Z</time>
      </trkpt>
      <trkpt lat="50.3051" lon="5.12455">
        <ele>268.15380787814</ele>
        <time>2017-06-07T16:36:04Z</time>
      </trkpt>
      <trkpt lat="50.30492" lon="5.12422">
        <ele>267.22885621927</ele>
        <time>2017-06-07T16:36:09Z</time>
      </trkpt>
      <trkpt lat="50.30475" lon="5.12387">
        <ele>267.33271925675</ele>
        <time>2017-06-07T16:36:13Z</time>
      </trkpt>
      <trkpt lat="50.30457" lon="5.12345">
        <ele>268.93627940691</ele>
        <time>2017-06-07T16:36:17Z</time>
      </trkpt>
      <trkpt lat="50.30439" lon="5.12286">
        <ele>268.70275273909</ele>
        <time>2017-06-07T16:36:22Z</time>
      </trkpt>
      <trkpt lat="50.30428" lon="5.12242">
        <ele>268.24848684058</ele>
        <time>2017-06-07T16:36:26Z</time>
      </trkpt>
      <trkpt lat="50.30418" lon="5.12195">
        <ele>268.99403119742</ele>
        <time>2017-06-07T16:36:30Z</time>
      </trkpt>
      <trkpt lat="50.30406" lon="5.12137">
        <ele>267.34417115268</ele>
        <time>2017-06-07T16:36:35Z</time>
      </trkpt>
      <trkpt lat="50.30397" lon="5.12099">
        <ele>266.25012956744</ele>
        <time>2017-06-07T16:36:39Z</time>
      </trkpt>
      <trkpt lat="50.30384" lon="5.12045">
        <ele>261.15312148192</ele>
        <time>2017-06-07T16:36:44Z</time>
      </trkpt>
      <trkpt lat="50.30371" lon="5.12">
        <ele>260.37761324396</ele>
        <time>2017-06-07T16:36:49Z</time>
      </trkpt>
      <trkpt lat="50.30362" lon="5.11965">
        <ele>259.22452502525</ele>
        <time>2017-06-07T16:36:53Z</time>
      </trkpt>
      <trkpt lat="50.30353" lon="5.11928">
        <ele>257.78401862544</ele>
        <time>2017-06-07T16:36:57Z</time>
      </trkpt>
      <trkpt lat="50.30343" lon="5.11891">
        <ele>259.64068965816</ele>
        <time>2017-06-07T16:37:01Z</time>
      </trkpt>
      <trkpt lat="50.30336" lon="5.11841">
        <ele>260.97448232578</ele>
        <time>2017-06-07T16:37:06Z</time>
      </trkpt>
      <trkpt lat="50.30332" lon="5.11789">
        <ele>258.5696019453</ele>
        <time>2017-06-07T16:37:11Z</time>
      </trkpt>
      <trkpt lat="50.30321" lon="5.11779">
        <ele>257.14422853592</ele>
        <time>2017-06-07T16:37:15Z</time>
      </trkpt>
      <trkpt lat="50.30303" lon="5.1178">
        <ele>255.5177354734</ele>
        <time>2017-06-07T16:37:19Z</time>
      </trkpt>
      <trkpt lat="50.30276" lon="5.11775">
        <ele>256.13850291031</ele>
        <time>2017-06-07T16:37:24Z</time>
      </trkpt>
      <trkpt lat="50.30252" lon="5.11774">
        <ele>259.9106265517</ele>
        <time>2017-06-07T16:37:28Z</time>
      </trkpt>
      <trkpt lat="50.30229" lon="5.11772">
        <ele>261.94469054882</ele>
        <time>2017-06-07T16:37:32Z</time>
      </trkpt>
      <trkpt lat="50.30206" lon="5.11761">
        <ele>262.32455651378</ele>
        <time>2017-06-07T16:37:36Z</time>
      </trkpt>
      <trkpt lat="50.30182" lon="5.11736">
        <ele>262.54999158526</ele>
        <time>2017-06-07T16:37:41Z</time>
      </trkpt>
      <trkpt lat="50.30162" lon="5.11722">
        <ele>262.08399406591</ele>
        <time>2017-06-07T16:37:45Z</time>
      </trkpt>
      <trkpt lat="50.30135" lon="5.11713">
        <ele>260.87733447465</ele>
        <time>2017-06-07T16:37:50Z</time>
      </trkpt>
      <trkpt lat="50.30114" lon="5.11719">
        <ele>258.37667892647</ele>
        <time>2017-06-07T16:37:54Z</time>
      </trkpt>
      <trkpt lat="50.3009" lon="5.11707">
        <ele>254.94550506222</ele>
        <time>2017-06-07T16:37:59Z</time>
      </trkpt>
      <trkpt lat="50.30061" lon="5.11715">
        <ele>249.18803837937</ele>
        <time>2017-06-07T16:38:04Z</time>
      </trkpt>
      <trkpt lat="50.30038" lon="5.11739">
        <ele>245.19302348896</ele>
        <time>2017-06-07T16:38:08Z</time>
      </trkpt>
      <trkpt lat="50.30005" lon="5.1176">
        <ele>244.76297676844</ele>
        <time>2017-06-07T16:38:13Z</time>
      </trkpt>
      <trkpt lat="50.29976" lon="5.11772">
        <ele>246.90563347046</ele>
        <time>2017-06-07T16:38:17Z</time>
      </trkpt>
      <trkpt lat="50.29943" lon="5.11782">
        <ele>244.80058233222</ele>
        <time>2017-06-07T16:38:22Z</time>
      </trkpt>
      <trkpt lat="50.29924" lon="5.11763">
        <ele>241.81350145165</ele>
        <time>2017-06-07T16:38:27Z</time>
      </trkpt>
      <trkpt lat="50.29908" lon="5.1173">
        <ele>244.21054498962</ele>
        <time>2017-06-07T16:38:32Z</time>
      </trkpt>
      <trkpt lat="50.29895" lon="5.11698">
        <ele>247.53699281983</ele>
        <time>2017-06-07T16:38:36Z</time>
      </trkpt>
      <trkpt lat="50.2988" lon="5.11671">
        <ele>246.79903608735</ele>
        <time>2017-06-07T16:38:40Z</time>
      </trkpt>
      <trkpt lat="50.29863" lon="5.11637">
        <ele>245.81496175243</ele>
        <time>2017-06-07T16:38:45Z</time>
      </trkpt>
      <trkpt lat="50.29872" lon="5.11596">
        <ele>246.14418216952</ele>
        <time>2017-06-07T16:38:49Z</time>
      </trkpt>
      <trkpt lat="50.29885" lon="5.11568">
        <ele>245.93969464526</ele>
        <time>2017-06-07T16:38:53Z</time>
      </trkpt>
      <trkpt lat="50.29899" lon="5.1153">
        <ele>246.14290254195</ele>
        <time>2017-06-07T16:38:58Z</time>
      </trkpt>
      <trkpt lat="50.29911" lon="5.11506">
        <ele>246.93490218593</ele>
        <time>2017-06-07T16:39:02Z</time>
      </trkpt>
      <trkpt lat="50.29922" lon="5.11473">
        <ele>246.86211177061</ele>
        <time>2017-06-07T16:39:07Z</time>
      </trkpt>
      <trkpt lat="50.29925" lon="5.11442">
        <ele>248.0644665589</ele>
        <time>2017-06-07T16:39:11Z</time>
      </trkpt>
      <trkpt lat="50.29923" lon="5.11414">
        <ele>249.19515228383</ele>
        <time>2017-06-07T16:39:15Z</time>
      </trkpt>
      <trkpt lat="50.29912" lon="5.11395">
        <ele>251.04477825369</ele>
        <time>2017-06-07T16:39:19Z</time>
      </trkpt>
      <trkpt lat="50.29897" lon="5.11376">
        <ele>253.16329077834</ele>
        <time>2017-06-07T16:39:23Z</time>
      </trkpt>
      <trkpt lat="50.29879" lon="5.11353">
        <ele>256.31722326107</ele>
        <time>2017-06-07T16:39:28Z</time>
      </trkpt>
      <trkpt lat="50.29862" lon="5.11332">
        <ele>259.70812391209</ele>
        <time>2017-06-07T16:39:33Z</time>
      </trkpt>
      <trkpt lat="50.29847" lon="5.11304">
        <ele>261.57288961452</ele>
        <time>2017-06-07T16:39:38Z</time>
      </trkpt>
      <trkpt lat="50.29836" lon="5.11281">
        <ele>261.88750496872</ele>
        <time>2017-06-07T16:39:42Z</time>
      </trkpt>
      <trkpt lat="50.29823" lon="5.11255">
        <ele>262.55985426079</ele>
        <time>2017-06-07T16:39:46Z</time>
      </trkpt>
      <trkpt lat="50.29807" lon="5.11223">
        <ele>264.83044706507</ele>
        <time>2017-06-07T16:39:51Z</time>
      </trkpt>
      <trkpt lat="50.29791" lon="5.11196">
        <ele>266.67952906291</ele>
        <time>2017-06-07T16:39:55Z</time>
      </trkpt>
      <trkpt lat="50.29773" lon="5.11172">
        <ele>268.02437644031</ele>
        <time>2017-06-07T16:39:59Z</time>
      </trkpt>
      <trkpt lat="50.29754" lon="5.11145">
        <ele>266.81494555282</ele>
        <time>2017-06-07T16:40:04Z</time>
      </trkpt>
      <trkpt lat="50.29737" lon="5.1112">
        <ele>264.8896940478</ele>
        <time>2017-06-07T16:40:08Z</time>
      </trkpt>
      <trkpt lat="50.29714" lon="5.11092">
        <ele>264.23515346268</ele>
        <time>2017-06-07T16:40:13Z</time>
      </trkpt>
      <trkpt lat="50.29697" lon="5.11073">
        <ele>266.04263018783</ele>
        <time>2017-06-07T16:40:17Z</time>
      </trkpt>
      <trkpt lat="50.29679" lon="5.11053">
        <ele>268.13540467967</ele>
        <time>2017-06-07T16:40:21Z</time>
      </trkpt>
      <trkpt lat="50.29661" lon="5.11037">
        <ele>267.71000943054</ele>
        <time>2017-06-07T16:40:25Z</time>
      </trkpt>
      <trkpt lat="50.29641" lon="5.11026">
        <ele>267.39790196886</ele>
        <time>2017-06-07T16:40:29Z</time>
      </trkpt>
      <trkpt lat="50.29616" lon="5.11008">
        <ele>272.52666257906</ele>
        <time>2017-06-07T16:40:34Z</time>
      </trkpt>
      <trkpt lat="50.29599" lon="5.10992">
        <ele>278.88533968307</ele>
        <time>2017-06-07T16:40:38Z</time>
      </trkpt>
      <trkpt lat="50.29588" lon="5.10976">
        <ele>279.46048114944</ele>
        <time>2017-06-07T16:40:43Z</time>
      </trkpt>
      <trkpt lat="50.296" lon="5.10947">
        <ele>275.39046045114</ele>
        <time>2017-06-07T16:40:48Z</time>
      </trkpt>
      <trkpt lat="50.29612" lon="5.10921">
        <ele>268.37332660338</ele>
        <time>2017-06-07T16:40:52Z</time>
      </trkpt>
      <trkpt lat="50.29624" lon="5.10884">
        <ele>267.33276240713</ele>
        <time>2017-06-07T16:40:57Z</time>
      </trkpt>
      <trkpt lat="50.29627" lon="5.10852">
        <ele>270.60375438833</ele>
        <time>2017-06-07T16:41:01Z</time>
      </trkpt>
      <trkpt lat="50.29625" lon="5.10804">
        <ele>272.15004567129</ele>
        <time>2017-06-07T16:41:06Z</time>
      </trkpt>
      <trkpt lat="50.29621" lon="5.10765">
        <ele>276.49956936376</ele>
        <time>2017-06-07T16:41:10Z</time>
      </trkpt>
      <trkpt lat="50.29613" lon="5.10725">
        <ele>276.60322551386</ele>
        <time>2017-06-07T16:41:15Z</time>
      </trkpt>
      <trkpt lat="50.29607" lon="5.10697">
        <ele>275.83078100606</ele>
        <time>2017-06-07T16:41:19Z</time>
      </trkpt>
      <trkpt lat="50.296" lon="5.10664">
        <ele>272.78838903758</ele>
        <time>2017-06-07T16:41:23Z</time>
      </trkpt>
      <trkpt lat="50.29597" lon="5.10631">
        <ele>272.67383692637</ele>
        <time>2017-06-07T16:41:27Z</time>
      </trkpt>
      <trkpt lat="50.29599" lon="5.10599">
        <ele>270.54253728532</ele>
        <time>2017-06-07T16:41:32Z</time>
      </trkpt>
      <trkpt lat="50.29595" lon="5.10577">
        <ele>269.56539409114</ele>
        <time>2017-06-07T16:41:36Z</time>
      </trkpt>
      <trkpt lat="50.29611" lon="5.10557">
        <ele>270.77045055187</ele>
        <time>2017-06-07T16:41:41Z</time>
      </trkpt>
      <trkpt lat="50.29626" lon="5.10541">
        <ele>269.43261588187</ele>
        <time>2017-06-07T16:41:45Z</time>
      </trkpt>
      <trkpt lat="50.2964" lon="5.10522">
        <ele>266.05425507542</ele>
        <time>2017-06-07T16:41:49Z</time>
      </trkpt>
      <trkpt lat="50.29642" lon="5.10494">
        <ele>264.98729850424</ele>
        <time>2017-06-07T16:41:54Z</time>
      </trkpt>
      <trkpt lat="50.29661" lon="5.10482">
        <ele>266.33537783161</ele>
        <time>2017-06-07T16:41:59Z</time>
      </trkpt>
      <trkpt lat="50.29681" lon="5.10463">
        <ele>267.13644352455</ele>
        <time>2017-06-07T16:42:03Z</time>
      </trkpt>
      <trkpt lat="50.29704" lon="5.10445">
        <ele>267.05753324342</ele>
        <time>2017-06-07T16:42:08Z</time>
      </trkpt>
      <trkpt lat="50.29719" lon="5.10437">
        <ele>268.35610262664</ele>
        <time>2017-06-07T16:42:12Z</time>
      </trkpt>
      <trkpt lat="50.29737" lon="5.10423">
        <ele>268.78434949406</ele>
        <time>2017-06-07T16:42:17Z</time>
      </trkpt>
      <trkpt lat="50.2975" lon="5.10415">
        <ele>268.67754670039</ele>
        <time>2017-06-07T16:42:21Z</time>
      </trkpt>
      <trkpt lat="50.29771" lon="5.10406">
        <ele>265.87561943561</ele>
        <time>2017-06-07T16:42:26Z</time>
      </trkpt>
      <trkpt lat="50.29789" lon="5.10391">
        <ele>265.16325153082</ele>
        <time>2017-06-07T16:42:31Z</time>
      </trkpt>
      <trkpt lat="50.29785" lon="5.10374">
        <ele>265.02619200785</ele>
        <time>2017-06-07T16:42:35Z</time>
      </trkpt>
      <trkpt lat="50.29767" lon="5.10335">
        <ele>270.84559801478</ele>
        <time>2017-06-07T16:42:40Z</time>
      </trkpt>
      <trkpt lat="50.29755" lon="5.10304">
        <ele>276.83335708591</ele>
        <time>2017-06-07T16:42:44Z</time>
      </trkpt>
      <trkpt lat="50.29745" lon="5.10265">
        <ele>281.18393048293</ele>
        <time>2017-06-07T16:42:49Z</time>
      </trkpt>
      <trkpt lat="50.29734" lon="5.10252">
        <ele>286.4223419903</ele>
        <time>2017-06-07T16:42:53Z</time>
      </trkpt>
      <trkpt lat="50.29727" lon="5.10249">
        <ele>286.0879639002</ele>
        <time>2017-06-07T16:43:03Z</time>
      </trkpt>
      <trkpt lat="50.29711" lon="5.10226">
        <ele>282.0017047588</ele>
        <time>2017-06-07T16:43:08Z</time>
      </trkpt>
      <trkpt lat="50.297" lon="5.10212">
        <ele>280.77840471842</ele>
        <time>2017-06-07T16:43:12Z</time>
      </trkpt>
      <trkpt lat="50.2969" lon="5.10194">
        <ele>280.21299026207</ele>
        <time>2017-06-07T16:43:17Z</time>
      </trkpt>
      <trkpt lat="50.29672" lon="5.10172">
        <ele>278.12424750679</ele>
        <time>2017-06-07T16:43:22Z</time>
      </trkpt>
      <trkpt lat="50.29656" lon="5.10157">
        <ele>277.11478482862</ele>
        <time>2017-06-07T16:43:26Z</time>
      </trkpt>
      <trkpt lat="50.29641" lon="5.1014">
        <ele>277.11347139017</ele>
        <time>2017-06-07T16:43:30Z</time>
      </trkpt>
      <trkpt lat="50.29624" lon="5.10108">
        <ele>278.0460118143</ele>
        <time>2017-06-07T16:43:35Z</time>
      </trkpt>
      <trkpt lat="50.29604" lon="5.10068">
        <ele>281.8817725752</ele>
        <time>2017-06-07T16:43:40Z</time>
      </trkpt>
      <trkpt lat="50.29585" lon="5.10045">
        <ele>284.21973391726</ele>
        <time>2017-06-07T16:43:44Z</time>
      </trkpt>
      <trkpt lat="50.29567" lon="5.10025">
        <ele>285.83416512424</ele>
        <time>2017-06-07T16:43:48Z</time>
      </trkpt>
      <trkpt lat="50.29552" lon="5.10011">
        <ele>282.08007417969</ele>
        <time>2017-06-07T16:43:53Z</time>
      </trkpt>
      <trkpt lat="50.29535" lon="5.1">
        <ele>275.03389506913</ele>
        <time>2017-06-07T16:43:57Z</time>
      </trkpt>
      <trkpt lat="50.29514" lon="5.09982">
        <ele>272.42114329256</ele>
        <time>2017-06-07T16:44:02Z</time>
      </trkpt>
      <trkpt lat="50.29498" lon="5.09968">
        <ele>269.99220497393</ele>
        <time>2017-06-07T16:44:06Z</time>
      </trkpt>
      <trkpt lat="50.29476" lon="5.09949">
        <ele>269.88891914253</ele>
        <time>2017-06-07T16:44:11Z</time>
      </trkpt>
      <trkpt lat="50.29462" lon="5.09939">
        <ele>271.01385526388</ele>
        <time>2017-06-07T16:44:15Z</time>
      </trkpt>
      <trkpt lat="50.29449" lon="5.09922">
        <ele>269.86018565043</ele>
        <time>2017-06-07T16:44:19Z</time>
      </trkpt>
      <trkpt lat="50.29434" lon="5.09909">
        <ele>268.92441372415</ele>
        <time>2017-06-07T16:44:23Z</time>
      </trkpt>
      <trkpt lat="50.29422" lon="5.09898">
        <ele>271.20038668625</ele>
        <time>2017-06-07T16:44:27Z</time>
      </trkpt>
      <trkpt lat="50.29399" lon="5.09873">
        <ele>276.72509523267</ele>
        <time>2017-06-07T16:44:32Z</time>
      </trkpt>
      <trkpt lat="50.2938" lon="5.09849">
        <ele>280.23501573651</ele>
        <time>2017-06-07T16:44:36Z</time>
      </trkpt>
      <trkpt lat="50.29357" lon="5.09817">
        <ele>279.9176365374</ele>
        <time>2017-06-07T16:44:41Z</time>
      </trkpt>
      <trkpt lat="50.29338" lon="5.09791">
        <ele>276.95414774131</ele>
        <time>2017-06-07T16:44:46Z</time>
      </trkpt>
      <trkpt lat="50.29342" lon="5.09764">
        <ele>271.34277958609</ele>
        <time>2017-06-07T16:44:51Z</time>
      </trkpt>
      <trkpt lat="50.29358" lon="5.09738">
        <ele>265.53334187</ele>
        <time>2017-06-07T16:44:56Z</time>
      </trkpt>
      <trkpt lat="50.29377" lon="5.0971">
        <ele>261.58975101081</ele>
        <time>2017-06-07T16:45:00Z</time>
      </trkpt>
      <trkpt lat="50.29392" lon="5.09689">
        <ele>261.42289427326</ele>
        <time>2017-06-07T16:45:05Z</time>
      </trkpt>
      <trkpt lat="50.29401" lon="5.09672">
        <ele>262.07077359566</ele>
        <time>2017-06-07T16:45:09Z</time>
      </trkpt>
      <trkpt lat="50.29395" lon="5.09653">
        <ele>264.3896794885</ele>
        <time>2017-06-07T16:45:13Z</time>
      </trkpt>
      <trkpt lat="50.29376" lon="5.09635">
        <ele>264.40047814054</ele>
        <time>2017-06-07T16:45:17Z</time>
      </trkpt>
      <trkpt lat="50.29358" lon="5.09623">
        <ele>263.90377029396</ele>
        <time>2017-06-07T16:45:21Z</time>
      </trkpt>
      <trkpt lat="50.29341" lon="5.09609">
        <ele>262.3462974161</ele>
        <time>2017-06-07T16:45:26Z</time>
      </trkpt>
      <trkpt lat="50.29328" lon="5.09597">
        <ele>259.55271734519</ele>
        <time>2017-06-07T16:45:30Z</time>
      </trkpt>
      <trkpt lat="50.29318" lon="5.09587">
        <ele>258.95654887108</ele>
        <time>2017-06-07T16:45:34Z</time>
      </trkpt>
      <trkpt lat="50.29317" lon="5.09575">
        <ele>258.51069878074</ele>
        <time>2017-06-07T16:45:38Z</time>
      </trkpt>
      <trkpt lat="50.29327" lon="5.09555">
        <ele>256.26073839796</ele>
        <time>2017-06-07T16:45:42Z</time>
      </trkpt>
      <trkpt lat="50.29339" lon="5.09536">
        <ele>251.86881337043</ele>
        <time>2017-06-07T16:45:46Z</time>
      </trkpt>
      <trkpt lat="50.2935" lon="5.09515">
        <ele>250.6818355658</ele>
        <time>2017-06-07T16:45:50Z</time>
      </trkpt>
      <trkpt lat="50.2936" lon="5.09499">
        <ele>250.4848017686</ele>
        <time>2017-06-07T16:45:55Z</time>
      </trkpt>
      <trkpt lat="50.29369" lon="5.09509">
        <ele>250.60809435341</ele>
        <time>2017-06-07T16:46:00Z</time>
      </trkpt>
      <trkpt lat="50.2938" lon="5.09525">
        <ele>251.67019662849</ele>
        <time>2017-06-07T16:46:04Z</time>
      </trkpt>
      <trkpt lat="50.29393" lon="5.09543">
        <ele>251.88599026869</ele>
        <time>2017-06-07T16:46:08Z</time>
      </trkpt>
      <trkpt lat="50.29401" lon="5.09555">
        <ele>251.80190455312</ele>
        <time>2017-06-07T16:46:12Z</time>
      </trkpt>
      <trkpt lat="50.29408" lon="5.0955">
        <ele>255.54639018612</ele>
        <time>2017-06-07T16:46:53Z</time>
      </trkpt>
      <trkpt lat="50.29412" lon="5.09538">
        <ele>255.43098482957</ele>
        <time>2017-06-07T16:47:13Z</time>
      </trkpt>
      <trkpt lat="50.29412" lon="5.09538">
        <ele>255.43098482957</ele>
        <time>2017-06-07T16:47:14Z</time>
      </trkpt>
    </trkseg>
  </trk>
</gpx>